<?xml version="1.0" encoding="UTF-8" standalone="no" ?>
<gpx xmlns="http://www.topografix.com/GPX/1/1" xmlns:xsi="http://www.w3.org/2001/XMLSchema-instance" xsi:schemaLocation="http://www.topografix.com/GPX/1/1 http://www.topografix.com/GPX/1/1/gpx.xsd" version="1.1" creator="VisuGPX - https://www.visugpx.com">
  <metadata>
    <name>2025-02-02  Randonnée TwoNav</name>
    <desc><![CDATA[2025-02-02_150309.trk]]></desc>
  </metadata>
  <trk>
    <name><![CDATA[2025-02-02  Randonnée TwoNav_1]]></name>
    <trkseg>
      <trkpt lat="48.12394" lon="6.70031">
        <ele>704.6</ele>
        <time>2025-02-02T14:03:09Z</time>
      </trkpt>
      <trkpt lat="48.12394" lon="6.70031">
        <ele>704.6</ele>
        <time>2025-02-02T14:03:10Z</time>
      </trkpt>
      <trkpt lat="48.12394" lon="6.70031">
        <ele>704.6</ele>
        <time>2025-02-02T14:03:11Z</time>
      </trkpt>
      <trkpt lat="48.12394" lon="6.70031">
        <ele>704.6</ele>
        <time>2025-02-02T14:03:12Z</time>
      </trkpt>
      <trkpt lat="48.12394" lon="6.70031">
        <ele>704.6</ele>
        <time>2025-02-02T14:03:13Z</time>
      </trkpt>
      <trkpt lat="48.12394" lon="6.70029">
        <ele>704.6</ele>
        <time>2025-02-02T14:03:20Z</time>
      </trkpt>
      <trkpt lat="48.12394" lon="6.70028">
        <ele>704.7</ele>
        <time>2025-02-02T14:03:21Z</time>
      </trkpt>
      <trkpt lat="48.12394" lon="6.70026">
        <ele>704.7</ele>
        <time>2025-02-02T14:03:22Z</time>
      </trkpt>
      <trkpt lat="48.12389" lon="6.70014">
        <ele>705</ele>
        <time>2025-02-02T14:03:31Z</time>
      </trkpt>
      <trkpt lat="48.12384" lon="6.70002">
        <ele>705.4</ele>
        <time>2025-02-02T14:03:42Z</time>
      </trkpt>
      <trkpt lat="48.12378" lon="6.69991">
        <ele>705.8</ele>
        <time>2025-02-02T14:03:53Z</time>
      </trkpt>
      <trkpt lat="48.12372" lon="6.6998">
        <ele>706.2</ele>
        <time>2025-02-02T14:03:59Z</time>
      </trkpt>
      <trkpt lat="48.12366" lon="6.69968">
        <ele>706.6</ele>
        <time>2025-02-02T14:04:08Z</time>
      </trkpt>
      <trkpt lat="48.1236" lon="6.69958">
        <ele>706.9</ele>
        <time>2025-02-02T14:04:17Z</time>
      </trkpt>
      <trkpt lat="48.12354" lon="6.69948">
        <ele>707.2</ele>
        <time>2025-02-02T14:04:26Z</time>
      </trkpt>
      <trkpt lat="48.12346" lon="6.69938">
        <ele>707.5</ele>
        <time>2025-02-02T14:04:33Z</time>
      </trkpt>
      <trkpt lat="48.12339" lon="6.6993">
        <ele>707.8</ele>
        <time>2025-02-02T14:04:41Z</time>
      </trkpt>
      <trkpt lat="48.12331" lon="6.69922">
        <ele>708.1</ele>
        <time>2025-02-02T14:04:49Z</time>
      </trkpt>
      <trkpt lat="48.12324" lon="6.69913">
        <ele>708.3</ele>
        <time>2025-02-02T14:04:58Z</time>
      </trkpt>
      <trkpt lat="48.12316" lon="6.69904">
        <ele>708.6</ele>
        <time>2025-02-02T14:05:04Z</time>
      </trkpt>
      <trkpt lat="48.12308" lon="6.69897">
        <ele>708.8</ele>
        <time>2025-02-02T14:05:11Z</time>
      </trkpt>
      <trkpt lat="48.12299" lon="6.69889">
        <ele>709</ele>
        <time>2025-02-02T14:05:19Z</time>
      </trkpt>
      <trkpt lat="48.12291" lon="6.69881">
        <ele>709.2</ele>
        <time>2025-02-02T14:05:27Z</time>
      </trkpt>
      <trkpt lat="48.12282" lon="6.69876">
        <ele>709.3</ele>
        <time>2025-02-02T14:05:36Z</time>
      </trkpt>
      <trkpt lat="48.12274" lon="6.69869">
        <ele>709.5</ele>
        <time>2025-02-02T14:05:42Z</time>
      </trkpt>
      <trkpt lat="48.12265" lon="6.69863">
        <ele>709.5</ele>
        <time>2025-02-02T14:05:53Z</time>
      </trkpt>
      <trkpt lat="48.12264" lon="6.69862">
        <ele>709.5</ele>
        <time>2025-02-02T14:05:58Z</time>
      </trkpt>
      <trkpt lat="48.12264" lon="6.69862">
        <ele>709.5</ele>
        <time>2025-02-02T14:05:59Z</time>
      </trkpt>
      <trkpt lat="48.12262" lon="6.69859">
        <ele>709.5</ele>
        <time>2025-02-02T14:06:06Z</time>
      </trkpt>
      <trkpt lat="48.12262" lon="6.69857">
        <ele>709.5</ele>
        <time>2025-02-02T14:06:07Z</time>
      </trkpt>
      <trkpt lat="48.1227" lon="6.69848">
        <ele>709.5</ele>
        <time>2025-02-02T14:06:16Z</time>
      </trkpt>
      <trkpt lat="48.12278" lon="6.69842">
        <ele>709.5</ele>
        <time>2025-02-02T14:06:23Z</time>
      </trkpt>
      <trkpt lat="48.12284" lon="6.6983">
        <ele>709</ele>
        <time>2025-02-02T14:06:33Z</time>
      </trkpt>
      <trkpt lat="48.12282" lon="6.69816">
        <ele>708.4</ele>
        <time>2025-02-02T14:06:42Z</time>
      </trkpt>
      <trkpt lat="48.12287" lon="6.69805">
        <ele>708</ele>
        <time>2025-02-02T14:06:49Z</time>
      </trkpt>
      <trkpt lat="48.12293" lon="6.69792">
        <ele>707.9</ele>
        <time>2025-02-02T14:06:57Z</time>
      </trkpt>
      <trkpt lat="48.12299" lon="6.6978">
        <ele>708</ele>
        <time>2025-02-02T14:07:05Z</time>
      </trkpt>
      <trkpt lat="48.12304" lon="6.69768">
        <ele>708</ele>
        <time>2025-02-02T14:07:14Z</time>
      </trkpt>
      <trkpt lat="48.1231" lon="6.69758">
        <ele>708.1</ele>
        <time>2025-02-02T14:07:22Z</time>
      </trkpt>
      <trkpt lat="48.12317" lon="6.69749">
        <ele>708.3</ele>
        <time>2025-02-02T14:07:30Z</time>
      </trkpt>
      <trkpt lat="48.12324" lon="6.69739">
        <ele>708.6</ele>
        <time>2025-02-02T14:07:39Z</time>
      </trkpt>
      <trkpt lat="48.12332" lon="6.69731">
        <ele>709</ele>
        <time>2025-02-02T14:07:47Z</time>
      </trkpt>
      <trkpt lat="48.1234" lon="6.69726">
        <ele>709.3</ele>
        <time>2025-02-02T14:07:56Z</time>
      </trkpt>
      <trkpt lat="48.12347" lon="6.69716">
        <ele>709.6</ele>
        <time>2025-02-02T14:08:05Z</time>
      </trkpt>
      <trkpt lat="48.12353" lon="6.69705">
        <ele>709.9</ele>
        <time>2025-02-02T14:08:14Z</time>
      </trkpt>
      <trkpt lat="48.12358" lon="6.69692">
        <ele>710.2</ele>
        <time>2025-02-02T14:08:24Z</time>
      </trkpt>
      <trkpt lat="48.12364" lon="6.69682">
        <ele>710.5</ele>
        <time>2025-02-02T14:08:35Z</time>
      </trkpt>
      <trkpt lat="48.12368" lon="6.6967">
        <ele>710.7</ele>
        <time>2025-02-02T14:08:47Z</time>
      </trkpt>
      <trkpt lat="48.12375" lon="6.6966">
        <ele>710.8</ele>
        <time>2025-02-02T14:08:59Z</time>
      </trkpt>
      <trkpt lat="48.12381" lon="6.69651">
        <ele>710.9</ele>
        <time>2025-02-02T14:09:15Z</time>
      </trkpt>
      <trkpt lat="48.12382" lon="6.6965">
        <ele>710.9</ele>
        <time>2025-02-02T14:09:26Z</time>
      </trkpt>
      <trkpt lat="48.12382" lon="6.6965">
        <ele>710.9</ele>
        <time>2025-02-02T14:09:27Z</time>
      </trkpt>
      <trkpt lat="48.12384" lon="6.6965">
        <ele>710.9</ele>
        <time>2025-02-02T14:09:45Z</time>
      </trkpt>
      <trkpt lat="48.12384" lon="6.6965">
        <ele>710.9</ele>
        <time>2025-02-02T14:09:46Z</time>
      </trkpt>
      <trkpt lat="48.12385" lon="6.6965">
        <ele>710.9</ele>
        <time>2025-02-02T14:09:47Z</time>
      </trkpt>
      <trkpt lat="48.12393" lon="6.69651">
        <ele>711</ele>
        <time>2025-02-02T14:10:08Z</time>
      </trkpt>
      <trkpt lat="48.12393" lon="6.69651">
        <ele>711</ele>
        <time>2025-02-02T14:10:09Z</time>
      </trkpt>
      <trkpt lat="48.12393" lon="6.69651">
        <ele>711</ele>
        <time>2025-02-02T14:10:10Z</time>
      </trkpt>
      <trkpt lat="48.12392" lon="6.69652">
        <ele>711</ele>
        <time>2025-02-02T14:10:21Z</time>
      </trkpt>
      <trkpt lat="48.12392" lon="6.69651">
        <ele>711</ele>
        <time>2025-02-02T14:10:22Z</time>
      </trkpt>
      <trkpt lat="48.12387" lon="6.69639">
        <ele>711</ele>
        <time>2025-02-02T14:10:42Z</time>
      </trkpt>
      <trkpt lat="48.12379" lon="6.69645">
        <ele>711</ele>
        <time>2025-02-02T14:11:15Z</time>
      </trkpt>
      <trkpt lat="48.12376" lon="6.69658">
        <ele>710.9</ele>
        <time>2025-02-02T14:11:28Z</time>
      </trkpt>
      <trkpt lat="48.12375" lon="6.69672">
        <ele>710.9</ele>
        <time>2025-02-02T14:11:40Z</time>
      </trkpt>
      <trkpt lat="48.12368" lon="6.69682">
        <ele>710.8</ele>
        <time>2025-02-02T14:11:53Z</time>
      </trkpt>
      <trkpt lat="48.12362" lon="6.69693">
        <ele>710.6</ele>
        <time>2025-02-02T14:12:01Z</time>
      </trkpt>
      <trkpt lat="48.12357" lon="6.69705">
        <ele>710.3</ele>
        <time>2025-02-02T14:12:09Z</time>
      </trkpt>
      <trkpt lat="48.12351" lon="6.69716">
        <ele>710</ele>
        <time>2025-02-02T14:12:18Z</time>
      </trkpt>
      <trkpt lat="48.12345" lon="6.69726">
        <ele>709.6</ele>
        <time>2025-02-02T14:12:27Z</time>
      </trkpt>
      <trkpt lat="48.12336" lon="6.69733">
        <ele>709.4</ele>
        <time>2025-02-02T14:12:37Z</time>
      </trkpt>
      <trkpt lat="48.12328" lon="6.6974">
        <ele>709</ele>
        <time>2025-02-02T14:12:46Z</time>
      </trkpt>
      <trkpt lat="48.1232" lon="6.69748">
        <ele>708.8</ele>
        <time>2025-02-02T14:12:55Z</time>
      </trkpt>
      <trkpt lat="48.12313" lon="6.69757">
        <ele>708.5</ele>
        <time>2025-02-02T14:13:04Z</time>
      </trkpt>
      <trkpt lat="48.12306" lon="6.69766">
        <ele>708.4</ele>
        <time>2025-02-02T14:13:12Z</time>
      </trkpt>
      <trkpt lat="48.123" lon="6.69778">
        <ele>708.4</ele>
        <time>2025-02-02T14:13:22Z</time>
      </trkpt>
      <trkpt lat="48.12295" lon="6.6979">
        <ele>708.4</ele>
        <time>2025-02-02T14:13:34Z</time>
      </trkpt>
      <trkpt lat="48.1229" lon="6.69803">
        <ele>708.5</ele>
        <time>2025-02-02T14:13:43Z</time>
      </trkpt>
      <trkpt lat="48.12286" lon="6.69815">
        <ele>708.9</ele>
        <time>2025-02-02T14:13:51Z</time>
      </trkpt>
      <trkpt lat="48.12287" lon="6.69829">
        <ele>709.6</ele>
        <time>2025-02-02T14:14:07Z</time>
      </trkpt>
      <trkpt lat="48.1228" lon="6.69838">
        <ele>709.6</ele>
        <time>2025-02-02T14:14:21Z</time>
      </trkpt>
      <trkpt lat="48.12272" lon="6.69844">
        <ele>709.6</ele>
        <time>2025-02-02T14:14:32Z</time>
      </trkpt>
      <trkpt lat="48.12263" lon="6.6985">
        <ele>709.7</ele>
        <time>2025-02-02T14:14:40Z</time>
      </trkpt>
      <trkpt lat="48.12261" lon="6.69852">
        <ele>709.6</ele>
        <time>2025-02-02T14:14:51Z</time>
      </trkpt>
      <trkpt lat="48.12261" lon="6.69852">
        <ele>709.6</ele>
        <time>2025-02-02T14:14:52Z</time>
      </trkpt>
      <trkpt lat="48.12261" lon="6.69852">
        <ele>709.6</ele>
        <time>2025-02-02T14:14:53Z</time>
      </trkpt>
      <trkpt lat="48.12259" lon="6.69851">
        <ele>709.6</ele>
        <time>2025-02-02T14:15:14Z</time>
      </trkpt>
      <trkpt lat="48.12258" lon="6.69851">
        <ele>709.6</ele>
        <time>2025-02-02T14:15:15Z</time>
      </trkpt>
      <trkpt lat="48.12248" lon="6.69853">
        <ele>709.5</ele>
        <time>2025-02-02T14:15:25Z</time>
      </trkpt>
      <trkpt lat="48.12239" lon="6.69852">
        <ele>709.4</ele>
        <time>2025-02-02T14:15:31Z</time>
      </trkpt>
      <trkpt lat="48.12229" lon="6.69852">
        <ele>709.3</ele>
        <time>2025-02-02T14:15:39Z</time>
      </trkpt>
      <trkpt lat="48.1222" lon="6.69851">
        <ele>709.3</ele>
        <time>2025-02-02T14:15:47Z</time>
      </trkpt>
      <trkpt lat="48.12211" lon="6.6985">
        <ele>709.2</ele>
        <time>2025-02-02T14:15:55Z</time>
      </trkpt>
      <trkpt lat="48.12201" lon="6.69855">
        <ele>709.2</ele>
        <time>2025-02-02T14:16:04Z</time>
      </trkpt>
      <trkpt lat="48.12192" lon="6.69858">
        <ele>709.2</ele>
        <time>2025-02-02T14:16:12Z</time>
      </trkpt>
      <trkpt lat="48.12183" lon="6.69864">
        <ele>709.1</ele>
        <time>2025-02-02T14:16:22Z</time>
      </trkpt>
      <trkpt lat="48.12174" lon="6.69868">
        <ele>709.1</ele>
        <time>2025-02-02T14:16:29Z</time>
      </trkpt>
      <trkpt lat="48.12164" lon="6.69869">
        <ele>709</ele>
        <time>2025-02-02T14:16:37Z</time>
      </trkpt>
      <trkpt lat="48.12154" lon="6.69872">
        <ele>708.9</ele>
        <time>2025-02-02T14:16:45Z</time>
      </trkpt>
      <trkpt lat="48.12144" lon="6.69874">
        <ele>708.6</ele>
        <time>2025-02-02T14:16:52Z</time>
      </trkpt>
      <trkpt lat="48.12135" lon="6.69877">
        <ele>708.2</ele>
        <time>2025-02-02T14:17:02Z</time>
      </trkpt>
      <trkpt lat="48.12125" lon="6.69881">
        <ele>707.9</ele>
        <time>2025-02-02T14:17:11Z</time>
      </trkpt>
      <trkpt lat="48.12117" lon="6.69889">
        <ele>707.7</ele>
        <time>2025-02-02T14:17:21Z</time>
      </trkpt>
      <trkpt lat="48.1211" lon="6.69899">
        <ele>707.8</ele>
        <time>2025-02-02T14:17:31Z</time>
      </trkpt>
      <trkpt lat="48.12102" lon="6.69908">
        <ele>707.9</ele>
        <time>2025-02-02T14:17:39Z</time>
      </trkpt>
      <trkpt lat="48.12096" lon="6.69919">
        <ele>707.9</ele>
        <time>2025-02-02T14:17:49Z</time>
      </trkpt>
      <trkpt lat="48.12088" lon="6.69928">
        <ele>707.7</ele>
        <time>2025-02-02T14:17:56Z</time>
      </trkpt>
      <trkpt lat="48.12084" lon="6.69941">
        <ele>707.4</ele>
        <time>2025-02-02T14:18:06Z</time>
      </trkpt>
      <trkpt lat="48.1208" lon="6.69954">
        <ele>707.1</ele>
        <time>2025-02-02T14:18:14Z</time>
      </trkpt>
      <trkpt lat="48.12073" lon="6.69963">
        <ele>706.7</ele>
        <time>2025-02-02T14:18:21Z</time>
      </trkpt>
      <trkpt lat="48.12067" lon="6.69975">
        <ele>706.3</ele>
        <time>2025-02-02T14:18:29Z</time>
      </trkpt>
      <trkpt lat="48.12063" lon="6.69988">
        <ele>705.9</ele>
        <time>2025-02-02T14:18:37Z</time>
      </trkpt>
      <trkpt lat="48.12057" lon="6.7">
        <ele>705.4</ele>
        <time>2025-02-02T14:18:44Z</time>
      </trkpt>
      <trkpt lat="48.12048" lon="6.70008">
        <ele>704.8</ele>
        <time>2025-02-02T14:18:50Z</time>
      </trkpt>
      <trkpt lat="48.12038" lon="6.70011">
        <ele>703.9</ele>
        <time>2025-02-02T14:18:56Z</time>
      </trkpt>
      <trkpt lat="48.12036" lon="6.70011">
        <ele>703.6</ele>
        <time>2025-02-02T14:19:00Z</time>
      </trkpt>
      <trkpt lat="48.12035" lon="6.70012">
        <ele>703.6</ele>
        <time>2025-02-02T14:19:01Z</time>
      </trkpt>
      <trkpt lat="48.12034" lon="6.70012">
        <ele>703.5</ele>
        <time>2025-02-02T14:19:02Z</time>
      </trkpt>
      <trkpt lat="48.12033" lon="6.70012">
        <ele>703.3</ele>
        <time>2025-02-02T14:19:03Z</time>
      </trkpt>
      <trkpt lat="48.12031" lon="6.70012">
        <ele>703.1</ele>
        <time>2025-02-02T14:19:04Z</time>
      </trkpt>
      <trkpt lat="48.1203" lon="6.70011">
        <ele>702.9</ele>
        <time>2025-02-02T14:19:05Z</time>
      </trkpt>
      <trkpt lat="48.12021" lon="6.70006">
        <ele>701.6</ele>
        <time>2025-02-02T14:19:15Z</time>
      </trkpt>
      <trkpt lat="48.12012" lon="6.70003">
        <ele>700.3</ele>
        <time>2025-02-02T14:19:23Z</time>
      </trkpt>
      <trkpt lat="48.12002" lon="6.70005">
        <ele>699</ele>
        <time>2025-02-02T14:19:33Z</time>
      </trkpt>
      <trkpt lat="48.11992" lon="6.70007">
        <ele>698.1</ele>
        <time>2025-02-02T14:19:41Z</time>
      </trkpt>
      <trkpt lat="48.11983" lon="6.70011">
        <ele>697.5</ele>
        <time>2025-02-02T14:19:49Z</time>
      </trkpt>
      <trkpt lat="48.11974" lon="6.70012">
        <ele>697</ele>
        <time>2025-02-02T14:19:56Z</time>
      </trkpt>
      <trkpt lat="48.11965" lon="6.70013">
        <ele>696.8</ele>
        <time>2025-02-02T14:20:04Z</time>
      </trkpt>
      <trkpt lat="48.11956" lon="6.70013">
        <ele>696.5</ele>
        <time>2025-02-02T14:20:11Z</time>
      </trkpt>
      <trkpt lat="48.11946" lon="6.70017">
        <ele>696.3</ele>
        <time>2025-02-02T14:20:19Z</time>
      </trkpt>
      <trkpt lat="48.11938" lon="6.70021">
        <ele>696.1</ele>
        <time>2025-02-02T14:20:26Z</time>
      </trkpt>
      <trkpt lat="48.11929" lon="6.70025">
        <ele>696</ele>
        <time>2025-02-02T14:20:33Z</time>
      </trkpt>
      <trkpt lat="48.11921" lon="6.70034">
        <ele>696</ele>
        <time>2025-02-02T14:20:42Z</time>
      </trkpt>
      <trkpt lat="48.11913" lon="6.7004">
        <ele>696.2</ele>
        <time>2025-02-02T14:20:50Z</time>
      </trkpt>
      <trkpt lat="48.11903" lon="6.70045">
        <ele>696.3</ele>
        <time>2025-02-02T14:20:58Z</time>
      </trkpt>
      <trkpt lat="48.11893" lon="6.70045">
        <ele>696.3</ele>
        <time>2025-02-02T14:21:07Z</time>
      </trkpt>
      <trkpt lat="48.11884" lon="6.70044">
        <ele>696.1</ele>
        <time>2025-02-02T14:21:15Z</time>
      </trkpt>
      <trkpt lat="48.11874" lon="6.70047">
        <ele>695.9</ele>
        <time>2025-02-02T14:21:24Z</time>
      </trkpt>
      <trkpt lat="48.11865" lon="6.70048">
        <ele>695.7</ele>
        <time>2025-02-02T14:21:31Z</time>
      </trkpt>
      <trkpt lat="48.11856" lon="6.7005">
        <ele>695.5</ele>
        <time>2025-02-02T14:21:39Z</time>
      </trkpt>
      <trkpt lat="48.11846" lon="6.70053">
        <ele>695.3</ele>
        <time>2025-02-02T14:21:53Z</time>
      </trkpt>
      <trkpt lat="48.11836" lon="6.70055">
        <ele>695.4</ele>
        <time>2025-02-02T14:22:02Z</time>
      </trkpt>
      <trkpt lat="48.11827" lon="6.70055">
        <ele>695.7</ele>
        <time>2025-02-02T14:22:12Z</time>
      </trkpt>
      <trkpt lat="48.11817" lon="6.70055">
        <ele>695.9</ele>
        <time>2025-02-02T14:22:19Z</time>
      </trkpt>
      <trkpt lat="48.11807" lon="6.70058">
        <ele>696.2</ele>
        <time>2025-02-02T14:22:27Z</time>
      </trkpt>
      <trkpt lat="48.11798" lon="6.70061">
        <ele>696.5</ele>
        <time>2025-02-02T14:22:35Z</time>
      </trkpt>
      <trkpt lat="48.11789" lon="6.70065">
        <ele>696.6</ele>
        <time>2025-02-02T14:22:43Z</time>
      </trkpt>
      <trkpt lat="48.1178" lon="6.70069">
        <ele>696.5</ele>
        <time>2025-02-02T14:22:51Z</time>
      </trkpt>
      <trkpt lat="48.1177" lon="6.7007">
        <ele>696.2</ele>
        <time>2025-02-02T14:22:59Z</time>
      </trkpt>
      <trkpt lat="48.11761" lon="6.70071">
        <ele>695.7</ele>
        <time>2025-02-02T14:23:07Z</time>
      </trkpt>
      <trkpt lat="48.11751" lon="6.70075">
        <ele>695.1</ele>
        <time>2025-02-02T14:23:17Z</time>
      </trkpt>
      <trkpt lat="48.11742" lon="6.7008">
        <ele>694.6</ele>
        <time>2025-02-02T14:23:26Z</time>
      </trkpt>
      <trkpt lat="48.11733" lon="6.70085">
        <ele>694.1</ele>
        <time>2025-02-02T14:23:34Z</time>
      </trkpt>
      <trkpt lat="48.11724" lon="6.70091">
        <ele>693.8</ele>
        <time>2025-02-02T14:23:43Z</time>
      </trkpt>
      <trkpt lat="48.11716" lon="6.70099">
        <ele>693.5</ele>
        <time>2025-02-02T14:23:55Z</time>
      </trkpt>
      <trkpt lat="48.11708" lon="6.70108">
        <ele>693.3</ele>
        <time>2025-02-02T14:24:03Z</time>
      </trkpt>
      <trkpt lat="48.11699" lon="6.70116">
        <ele>693.2</ele>
        <time>2025-02-02T14:24:13Z</time>
      </trkpt>
      <trkpt lat="48.11691" lon="6.70122">
        <ele>693.2</ele>
        <time>2025-02-02T14:24:22Z</time>
      </trkpt>
      <trkpt lat="48.11681" lon="6.70122">
        <ele>693.4</ele>
        <time>2025-02-02T14:24:31Z</time>
      </trkpt>
      <trkpt lat="48.11672" lon="6.70124">
        <ele>693.7</ele>
        <time>2025-02-02T14:24:37Z</time>
      </trkpt>
      <trkpt lat="48.11662" lon="6.70124">
        <ele>694.2</ele>
        <time>2025-02-02T14:24:45Z</time>
      </trkpt>
      <trkpt lat="48.11653" lon="6.70126">
        <ele>694.8</ele>
        <time>2025-02-02T14:24:51Z</time>
      </trkpt>
      <trkpt lat="48.11644" lon="6.7013">
        <ele>695.2</ele>
        <time>2025-02-02T14:24:58Z</time>
      </trkpt>
      <trkpt lat="48.11636" lon="6.70138">
        <ele>695.7</ele>
        <time>2025-02-02T14:25:04Z</time>
      </trkpt>
      <trkpt lat="48.11627" lon="6.70142">
        <ele>696.1</ele>
        <time>2025-02-02T14:25:10Z</time>
      </trkpt>
      <trkpt lat="48.11618" lon="6.70143">
        <ele>696.4</ele>
        <time>2025-02-02T14:25:17Z</time>
      </trkpt>
      <trkpt lat="48.11609" lon="6.70145">
        <ele>696.6</ele>
        <time>2025-02-02T14:25:24Z</time>
      </trkpt>
      <trkpt lat="48.116" lon="6.70144">
        <ele>696.8</ele>
        <time>2025-02-02T14:25:32Z</time>
      </trkpt>
      <trkpt lat="48.1159" lon="6.70144">
        <ele>696.9</ele>
        <time>2025-02-02T14:25:40Z</time>
      </trkpt>
      <trkpt lat="48.1158" lon="6.70144">
        <ele>696.9</ele>
        <time>2025-02-02T14:25:48Z</time>
      </trkpt>
      <trkpt lat="48.1157" lon="6.70144">
        <ele>696.9</ele>
        <time>2025-02-02T14:25:56Z</time>
      </trkpt>
      <trkpt lat="48.1156" lon="6.70142">
        <ele>697</ele>
        <time>2025-02-02T14:26:04Z</time>
      </trkpt>
      <trkpt lat="48.11551" lon="6.70142">
        <ele>697.2</ele>
        <time>2025-02-02T14:26:11Z</time>
      </trkpt>
      <trkpt lat="48.11541" lon="6.70142">
        <ele>697.5</ele>
        <time>2025-02-02T14:26:18Z</time>
      </trkpt>
      <trkpt lat="48.11532" lon="6.70142">
        <ele>697.8</ele>
        <time>2025-02-02T14:26:26Z</time>
      </trkpt>
      <trkpt lat="48.11522" lon="6.70143">
        <ele>698.2</ele>
        <time>2025-02-02T14:26:34Z</time>
      </trkpt>
      <trkpt lat="48.11512" lon="6.70142">
        <ele>698.7</ele>
        <time>2025-02-02T14:26:42Z</time>
      </trkpt>
      <trkpt lat="48.11502" lon="6.70142">
        <ele>699</ele>
        <time>2025-02-02T14:26:50Z</time>
      </trkpt>
      <trkpt lat="48.11492" lon="6.70141">
        <ele>699.3</ele>
        <time>2025-02-02T14:26:58Z</time>
      </trkpt>
      <trkpt lat="48.11483" lon="6.7014">
        <ele>699.5</ele>
        <time>2025-02-02T14:27:05Z</time>
      </trkpt>
      <trkpt lat="48.11473" lon="6.70139">
        <ele>699.7</ele>
        <time>2025-02-02T14:27:13Z</time>
      </trkpt>
      <trkpt lat="48.11464" lon="6.70139">
        <ele>699.9</ele>
        <time>2025-02-02T14:27:21Z</time>
      </trkpt>
      <trkpt lat="48.11455" lon="6.70139">
        <ele>700.1</ele>
        <time>2025-02-02T14:27:29Z</time>
      </trkpt>
      <trkpt lat="48.11446" lon="6.70139">
        <ele>700.2</ele>
        <time>2025-02-02T14:27:37Z</time>
      </trkpt>
      <trkpt lat="48.11436" lon="6.70139">
        <ele>700.3</ele>
        <time>2025-02-02T14:27:46Z</time>
      </trkpt>
      <trkpt lat="48.11427" lon="6.70138">
        <ele>700.5</ele>
        <time>2025-02-02T14:27:54Z</time>
      </trkpt>
      <trkpt lat="48.11417" lon="6.70138">
        <ele>700.6</ele>
        <time>2025-02-02T14:28:03Z</time>
      </trkpt>
      <trkpt lat="48.11408" lon="6.70138">
        <ele>700.8</ele>
        <time>2025-02-02T14:28:12Z</time>
      </trkpt>
      <trkpt lat="48.11403" lon="6.70138">
        <ele>700.9</ele>
        <time>2025-02-02T14:28:20Z</time>
      </trkpt>
      <trkpt lat="48.11403" lon="6.70138">
        <ele>700.9</ele>
        <time>2025-02-02T14:28:21Z</time>
      </trkpt>
      <trkpt lat="48.11403" lon="6.70138">
        <ele>700.9</ele>
        <time>2025-02-02T14:28:22Z</time>
      </trkpt>
      <trkpt lat="48.114" lon="6.70138">
        <ele>701</ele>
        <time>2025-02-02T14:28:43Z</time>
      </trkpt>
      <trkpt lat="48.11399" lon="6.70138">
        <ele>701</ele>
        <time>2025-02-02T14:28:44Z</time>
      </trkpt>
      <trkpt lat="48.11398" lon="6.70138">
        <ele>701</ele>
        <time>2025-02-02T14:28:45Z</time>
      </trkpt>
      <trkpt lat="48.11393" lon="6.70138">
        <ele>701.2</ele>
        <time>2025-02-02T14:28:53Z</time>
      </trkpt>
      <trkpt lat="48.11392" lon="6.70138">
        <ele>701.2</ele>
        <time>2025-02-02T14:28:54Z</time>
      </trkpt>
      <trkpt lat="48.11392" lon="6.70138">
        <ele>701.2</ele>
        <time>2025-02-02T14:28:55Z</time>
      </trkpt>
      <trkpt lat="48.11391" lon="6.70138">
        <ele>701.2</ele>
        <time>2025-02-02T14:28:58Z</time>
      </trkpt>
      <trkpt lat="48.1139" lon="6.70139">
        <ele>701.2</ele>
        <time>2025-02-02T14:28:59Z</time>
      </trkpt>
      <trkpt lat="48.11389" lon="6.70139">
        <ele>701.3</ele>
        <time>2025-02-02T14:29:00Z</time>
      </trkpt>
      <trkpt lat="48.1138" lon="6.70141">
        <ele>701.7</ele>
        <time>2025-02-02T14:29:09Z</time>
      </trkpt>
      <trkpt lat="48.11371" lon="6.70145">
        <ele>702.1</ele>
        <time>2025-02-02T14:29:19Z</time>
      </trkpt>
      <trkpt lat="48.11363" lon="6.70152">
        <ele>702.4</ele>
        <time>2025-02-02T14:29:30Z</time>
      </trkpt>
      <trkpt lat="48.11369" lon="6.70164">
        <ele>702.1</ele>
        <time>2025-02-02T14:29:41Z</time>
      </trkpt>
      <trkpt lat="48.11375" lon="6.70175">
        <ele>702.8</ele>
        <time>2025-02-02T14:29:51Z</time>
      </trkpt>
      <trkpt lat="48.11379" lon="6.70187">
        <ele>703.2</ele>
        <time>2025-02-02T14:29:59Z</time>
      </trkpt>
      <trkpt lat="48.11385" lon="6.70199">
        <ele>704.2</ele>
        <time>2025-02-02T14:30:07Z</time>
      </trkpt>
      <trkpt lat="48.11389" lon="6.70212">
        <ele>705.2</ele>
        <time>2025-02-02T14:30:15Z</time>
      </trkpt>
      <trkpt lat="48.11393" lon="6.70224">
        <ele>706.4</ele>
        <time>2025-02-02T14:30:24Z</time>
      </trkpt>
      <trkpt lat="48.114" lon="6.70233">
        <ele>707.3</ele>
        <time>2025-02-02T14:30:33Z</time>
      </trkpt>
      <trkpt lat="48.11407" lon="6.70245">
        <ele>708.8</ele>
        <time>2025-02-02T14:30:42Z</time>
      </trkpt>
      <trkpt lat="48.11409" lon="6.70258">
        <ele>710.8</ele>
        <time>2025-02-02T14:30:49Z</time>
      </trkpt>
      <trkpt lat="48.11409" lon="6.70273">
        <ele>712.8</ele>
        <time>2025-02-02T14:30:57Z</time>
      </trkpt>
      <trkpt lat="48.11408" lon="6.70287">
        <ele>715.4</ele>
        <time>2025-02-02T14:31:04Z</time>
      </trkpt>
      <trkpt lat="48.11407" lon="6.70301">
        <ele>718</ele>
        <time>2025-02-02T14:31:12Z</time>
      </trkpt>
      <trkpt lat="48.11407" lon="6.70314">
        <ele>720.5</ele>
        <time>2025-02-02T14:31:19Z</time>
      </trkpt>
      <trkpt lat="48.11407" lon="6.70328">
        <ele>722.7</ele>
        <time>2025-02-02T14:31:27Z</time>
      </trkpt>
      <trkpt lat="48.11405" lon="6.70342">
        <ele>724.6</ele>
        <time>2025-02-02T14:31:35Z</time>
      </trkpt>
      <trkpt lat="48.11404" lon="6.7035">
        <ele>724.9</ele>
        <time>2025-02-02T14:31:43Z</time>
      </trkpt>
      <trkpt lat="48.11404" lon="6.7035">
        <ele>724.8</ele>
        <time>2025-02-02T14:31:44Z</time>
      </trkpt>
      <trkpt lat="48.11405" lon="6.7035">
        <ele>724.7</ele>
        <time>2025-02-02T14:32:29Z</time>
      </trkpt>
      <trkpt lat="48.11405" lon="6.7035">
        <ele>724.6</ele>
        <time>2025-02-02T14:32:30Z</time>
      </trkpt>
      <trkpt lat="48.11405" lon="6.7035">
        <ele>724.6</ele>
        <time>2025-02-02T14:32:31Z</time>
      </trkpt>
      <trkpt lat="48.11405" lon="6.7035">
        <ele>724.5</ele>
        <time>2025-02-02T14:32:32Z</time>
      </trkpt>
      <trkpt lat="48.11405" lon="6.70351">
        <ele>724.4</ele>
        <time>2025-02-02T14:32:48Z</time>
      </trkpt>
      <trkpt lat="48.11405" lon="6.70352">
        <ele>724.6</ele>
        <time>2025-02-02T14:32:49Z</time>
      </trkpt>
      <trkpt lat="48.11406" lon="6.70367">
        <ele>725.2</ele>
        <time>2025-02-02T14:32:57Z</time>
      </trkpt>
      <trkpt lat="48.11408" lon="6.70382">
        <ele>725.2</ele>
        <time>2025-02-02T14:33:05Z</time>
      </trkpt>
      <trkpt lat="48.1141" lon="6.70396">
        <ele>725.4</ele>
        <time>2025-02-02T14:33:13Z</time>
      </trkpt>
      <trkpt lat="48.11403" lon="6.70406">
        <ele>725.5</ele>
        <time>2025-02-02T14:33:25Z</time>
      </trkpt>
      <trkpt lat="48.11394" lon="6.70409">
        <ele>725.6</ele>
        <time>2025-02-02T14:33:32Z</time>
      </trkpt>
      <trkpt lat="48.11384" lon="6.70412">
        <ele>726.2</ele>
        <time>2025-02-02T14:33:40Z</time>
      </trkpt>
      <trkpt lat="48.11375" lon="6.70415">
        <ele>726.6</ele>
        <time>2025-02-02T14:33:48Z</time>
      </trkpt>
      <trkpt lat="48.11364" lon="6.70416">
        <ele>726.6</ele>
        <time>2025-02-02T14:33:56Z</time>
      </trkpt>
      <trkpt lat="48.11355" lon="6.70415">
        <ele>726.4</ele>
        <time>2025-02-02T14:34:02Z</time>
      </trkpt>
      <trkpt lat="48.11346" lon="6.70417">
        <ele>726.2</ele>
        <time>2025-02-02T14:34:09Z</time>
      </trkpt>
      <trkpt lat="48.11336" lon="6.70419">
        <ele>726</ele>
        <time>2025-02-02T14:34:17Z</time>
      </trkpt>
      <trkpt lat="48.11326" lon="6.70422">
        <ele>725.8</ele>
        <time>2025-02-02T14:34:27Z</time>
      </trkpt>
      <trkpt lat="48.11317" lon="6.70422">
        <ele>725.6</ele>
        <time>2025-02-02T14:34:34Z</time>
      </trkpt>
      <trkpt lat="48.11308" lon="6.70425">
        <ele>725.4</ele>
        <time>2025-02-02T14:34:43Z</time>
      </trkpt>
      <trkpt lat="48.11298" lon="6.70427">
        <ele>725.2</ele>
        <time>2025-02-02T14:34:50Z</time>
      </trkpt>
      <trkpt lat="48.11289" lon="6.70427">
        <ele>724.9</ele>
        <time>2025-02-02T14:34:57Z</time>
      </trkpt>
      <trkpt lat="48.11284" lon="6.70426">
        <ele>724.7</ele>
        <time>2025-02-02T14:35:05Z</time>
      </trkpt>
      <trkpt lat="48.11284" lon="6.70426">
        <ele>724.7</ele>
        <time>2025-02-02T14:35:06Z</time>
      </trkpt>
      <trkpt lat="48.11284" lon="6.70426">
        <ele>724.7</ele>
        <time>2025-02-02T14:35:07Z</time>
      </trkpt>
      <trkpt lat="48.1128" lon="6.70424">
        <ele>724.6</ele>
        <time>2025-02-02T14:35:51Z</time>
      </trkpt>
      <trkpt lat="48.11279" lon="6.70424">
        <ele>724.6</ele>
        <time>2025-02-02T14:35:52Z</time>
      </trkpt>
      <trkpt lat="48.1127" lon="6.70419">
        <ele>724.3</ele>
        <time>2025-02-02T14:36:01Z</time>
      </trkpt>
      <trkpt lat="48.11261" lon="6.70415">
        <ele>724</ele>
        <time>2025-02-02T14:36:11Z</time>
      </trkpt>
      <trkpt lat="48.11251" lon="6.70411">
        <ele>723.7</ele>
        <time>2025-02-02T14:36:19Z</time>
      </trkpt>
      <trkpt lat="48.11242" lon="6.70411">
        <ele>723.4</ele>
        <time>2025-02-02T14:36:27Z</time>
      </trkpt>
      <trkpt lat="48.11232" lon="6.70409">
        <ele>723.1</ele>
        <time>2025-02-02T14:36:41Z</time>
      </trkpt>
      <trkpt lat="48.11226" lon="6.70405">
        <ele>722.9</ele>
        <time>2025-02-02T14:36:53Z</time>
      </trkpt>
      <trkpt lat="48.11226" lon="6.70405">
        <ele>722.9</ele>
        <time>2025-02-02T14:36:54Z</time>
      </trkpt>
      <trkpt lat="48.11221" lon="6.70404">
        <ele>722.7</ele>
        <time>2025-02-02T14:38:31Z</time>
      </trkpt>
      <trkpt lat="48.1122" lon="6.70403">
        <ele>722.7</ele>
        <time>2025-02-02T14:38:32Z</time>
      </trkpt>
      <trkpt lat="48.1121" lon="6.704">
        <ele>722.3</ele>
        <time>2025-02-02T14:38:41Z</time>
      </trkpt>
      <trkpt lat="48.112" lon="6.704">
        <ele>722</ele>
        <time>2025-02-02T14:38:51Z</time>
      </trkpt>
      <trkpt lat="48.11191" lon="6.70399">
        <ele>721.8</ele>
        <time>2025-02-02T14:39:00Z</time>
      </trkpt>
      <trkpt lat="48.1119" lon="6.70398">
        <ele>721.7</ele>
        <time>2025-02-02T14:39:06Z</time>
      </trkpt>
      <trkpt lat="48.1119" lon="6.70398">
        <ele>721.7</ele>
        <time>2025-02-02T14:39:07Z</time>
      </trkpt>
      <trkpt lat="48.11189" lon="6.70398">
        <ele>721.7</ele>
        <time>2025-02-02T14:39:08Z</time>
      </trkpt>
      <trkpt lat="48.11188" lon="6.70398">
        <ele>721.7</ele>
        <time>2025-02-02T14:39:09Z</time>
      </trkpt>
      <trkpt lat="48.11186" lon="6.70398">
        <ele>721.7</ele>
        <time>2025-02-02T14:39:10Z</time>
      </trkpt>
      <trkpt lat="48.11177" lon="6.70394">
        <ele>721.7</ele>
        <time>2025-02-02T14:39:19Z</time>
      </trkpt>
      <trkpt lat="48.11168" lon="6.7039">
        <ele>722</ele>
        <time>2025-02-02T14:39:27Z</time>
      </trkpt>
      <trkpt lat="48.1116" lon="6.70385">
        <ele>722.5</ele>
        <time>2025-02-02T14:39:35Z</time>
      </trkpt>
      <trkpt lat="48.11152" lon="6.70377">
        <ele>723.1</ele>
        <time>2025-02-02T14:39:43Z</time>
      </trkpt>
      <trkpt lat="48.11142" lon="6.70372">
        <ele>723.8</ele>
        <time>2025-02-02T14:39:56Z</time>
      </trkpt>
      <trkpt lat="48.11133" lon="6.70369">
        <ele>724.5</ele>
        <time>2025-02-02T14:40:01Z</time>
      </trkpt>
      <trkpt lat="48.11123" lon="6.70365">
        <ele>725.1</ele>
        <time>2025-02-02T14:40:07Z</time>
      </trkpt>
      <trkpt lat="48.11113" lon="6.70366">
        <ele>725.5</ele>
        <time>2025-02-02T14:40:15Z</time>
      </trkpt>
      <trkpt lat="48.11104" lon="6.70364">
        <ele>725.9</ele>
        <time>2025-02-02T14:40:22Z</time>
      </trkpt>
      <trkpt lat="48.11094" lon="6.70364">
        <ele>726.2</ele>
        <time>2025-02-02T14:40:32Z</time>
      </trkpt>
      <trkpt lat="48.11085" lon="6.7036">
        <ele>726.6</ele>
        <time>2025-02-02T14:40:41Z</time>
      </trkpt>
      <trkpt lat="48.11076" lon="6.7036">
        <ele>726.9</ele>
        <time>2025-02-02T14:40:49Z</time>
      </trkpt>
      <trkpt lat="48.11067" lon="6.70359">
        <ele>727.1</ele>
        <time>2025-02-02T14:40:57Z</time>
      </trkpt>
      <trkpt lat="48.11057" lon="6.7036">
        <ele>727.3</ele>
        <time>2025-02-02T14:41:04Z</time>
      </trkpt>
      <trkpt lat="48.11048" lon="6.7036">
        <ele>727.5</ele>
        <time>2025-02-02T14:41:11Z</time>
      </trkpt>
      <trkpt lat="48.11039" lon="6.7036">
        <ele>727.7</ele>
        <time>2025-02-02T14:41:17Z</time>
      </trkpt>
      <trkpt lat="48.11029" lon="6.70361">
        <ele>727.8</ele>
        <time>2025-02-02T14:41:24Z</time>
      </trkpt>
      <trkpt lat="48.1102" lon="6.70362">
        <ele>728</ele>
        <time>2025-02-02T14:41:31Z</time>
      </trkpt>
      <trkpt lat="48.1101" lon="6.70364">
        <ele>728.4</ele>
        <time>2025-02-02T14:41:39Z</time>
      </trkpt>
      <trkpt lat="48.11001" lon="6.70366">
        <ele>728.7</ele>
        <time>2025-02-02T14:41:48Z</time>
      </trkpt>
      <trkpt lat="48.1099" lon="6.70368">
        <ele>729.2</ele>
        <time>2025-02-02T14:41:56Z</time>
      </trkpt>
      <trkpt lat="48.10981" lon="6.70369">
        <ele>729.8</ele>
        <time>2025-02-02T14:42:01Z</time>
      </trkpt>
      <trkpt lat="48.10971" lon="6.70372">
        <ele>730.5</ele>
        <time>2025-02-02T14:42:08Z</time>
      </trkpt>
      <trkpt lat="48.10962" lon="6.70376">
        <ele>731.2</ele>
        <time>2025-02-02T14:42:15Z</time>
      </trkpt>
      <trkpt lat="48.10953" lon="6.70381">
        <ele>731.9</ele>
        <time>2025-02-02T14:42:22Z</time>
      </trkpt>
      <trkpt lat="48.10944" lon="6.70386">
        <ele>732.6</ele>
        <time>2025-02-02T14:42:29Z</time>
      </trkpt>
      <trkpt lat="48.10935" lon="6.70392">
        <ele>733.3</ele>
        <time>2025-02-02T14:42:36Z</time>
      </trkpt>
      <trkpt lat="48.10926" lon="6.70399">
        <ele>733.9</ele>
        <time>2025-02-02T14:42:43Z</time>
      </trkpt>
      <trkpt lat="48.10918" lon="6.70406">
        <ele>734.4</ele>
        <time>2025-02-02T14:42:51Z</time>
      </trkpt>
      <trkpt lat="48.1091" lon="6.70415">
        <ele>734.8</ele>
        <time>2025-02-02T14:42:59Z</time>
      </trkpt>
      <trkpt lat="48.10902" lon="6.70422">
        <ele>735.1</ele>
        <time>2025-02-02T14:43:06Z</time>
      </trkpt>
      <trkpt lat="48.10894" lon="6.70431">
        <ele>735.4</ele>
        <time>2025-02-02T14:43:13Z</time>
      </trkpt>
      <trkpt lat="48.10885" lon="6.70437">
        <ele>735.5</ele>
        <time>2025-02-02T14:43:21Z</time>
      </trkpt>
      <trkpt lat="48.10878" lon="6.70448">
        <ele>735.6</ele>
        <time>2025-02-02T14:43:30Z</time>
      </trkpt>
      <trkpt lat="48.10871" lon="6.70457">
        <ele>735.7</ele>
        <time>2025-02-02T14:43:38Z</time>
      </trkpt>
      <trkpt lat="48.10864" lon="6.70466">
        <ele>735.7</ele>
        <time>2025-02-02T14:43:45Z</time>
      </trkpt>
      <trkpt lat="48.10856" lon="6.70475">
        <ele>735.5</ele>
        <time>2025-02-02T14:43:53Z</time>
      </trkpt>
      <trkpt lat="48.10848" lon="6.70485">
        <ele>735.3</ele>
        <time>2025-02-02T14:44:01Z</time>
      </trkpt>
      <trkpt lat="48.10842" lon="6.70496">
        <ele>734.9</ele>
        <time>2025-02-02T14:44:09Z</time>
      </trkpt>
      <trkpt lat="48.10835" lon="6.70506">
        <ele>734.5</ele>
        <time>2025-02-02T14:44:16Z</time>
      </trkpt>
      <trkpt lat="48.10829" lon="6.70515">
        <ele>734.1</ele>
        <time>2025-02-02T14:44:23Z</time>
      </trkpt>
      <trkpt lat="48.10824" lon="6.70529">
        <ele>733.7</ele>
        <time>2025-02-02T14:44:31Z</time>
      </trkpt>
      <trkpt lat="48.10818" lon="6.70541">
        <ele>733.5</ele>
        <time>2025-02-02T14:44:39Z</time>
      </trkpt>
      <trkpt lat="48.10813" lon="6.70553">
        <ele>733.4</ele>
        <time>2025-02-02T14:44:47Z</time>
      </trkpt>
      <trkpt lat="48.10809" lon="6.70565">
        <ele>733.3</ele>
        <time>2025-02-02T14:44:55Z</time>
      </trkpt>
      <trkpt lat="48.10808" lon="6.70579">
        <ele>733.3</ele>
        <time>2025-02-02T14:45:03Z</time>
      </trkpt>
      <trkpt lat="48.10805" lon="6.70592">
        <ele>733.2</ele>
        <time>2025-02-02T14:45:10Z</time>
      </trkpt>
      <trkpt lat="48.10802" lon="6.70608">
        <ele>733.1</ele>
        <time>2025-02-02T14:45:18Z</time>
      </trkpt>
      <trkpt lat="48.10801" lon="6.70622">
        <ele>733</ele>
        <time>2025-02-02T14:45:27Z</time>
      </trkpt>
      <trkpt lat="48.108" lon="6.70636">
        <ele>732.9</ele>
        <time>2025-02-02T14:45:37Z</time>
      </trkpt>
      <trkpt lat="48.108" lon="6.7065">
        <ele>732.5</ele>
        <time>2025-02-02T14:45:44Z</time>
      </trkpt>
      <trkpt lat="48.10798" lon="6.70664">
        <ele>731.9</ele>
        <time>2025-02-02T14:45:50Z</time>
      </trkpt>
      <trkpt lat="48.10797" lon="6.70678">
        <ele>731.4</ele>
        <time>2025-02-02T14:45:57Z</time>
      </trkpt>
      <trkpt lat="48.10793" lon="6.70691">
        <ele>730.8</ele>
        <time>2025-02-02T14:46:05Z</time>
      </trkpt>
      <trkpt lat="48.10791" lon="6.70706">
        <ele>730.5</ele>
        <time>2025-02-02T14:46:14Z</time>
      </trkpt>
      <trkpt lat="48.1079" lon="6.70721">
        <ele>730.5</ele>
        <time>2025-02-02T14:46:22Z</time>
      </trkpt>
      <trkpt lat="48.10792" lon="6.70734">
        <ele>730.5</ele>
        <time>2025-02-02T14:46:29Z</time>
      </trkpt>
      <trkpt lat="48.10792" lon="6.70748">
        <ele>730.7</ele>
        <time>2025-02-02T14:46:36Z</time>
      </trkpt>
      <trkpt lat="48.10792" lon="6.70763">
        <ele>730.9</ele>
        <time>2025-02-02T14:46:44Z</time>
      </trkpt>
      <trkpt lat="48.10794" lon="6.70777">
        <ele>731.2</ele>
        <time>2025-02-02T14:46:51Z</time>
      </trkpt>
      <trkpt lat="48.10793" lon="6.70791">
        <ele>731.5</ele>
        <time>2025-02-02T14:46:58Z</time>
      </trkpt>
      <trkpt lat="48.10791" lon="6.70804">
        <ele>732</ele>
        <time>2025-02-02T14:47:05Z</time>
      </trkpt>
      <trkpt lat="48.10789" lon="6.70818">
        <ele>732.6</ele>
        <time>2025-02-02T14:47:12Z</time>
      </trkpt>
      <trkpt lat="48.10788" lon="6.70831">
        <ele>733.2</ele>
        <time>2025-02-02T14:47:19Z</time>
      </trkpt>
      <trkpt lat="48.10785" lon="6.70846">
        <ele>733.7</ele>
        <time>2025-02-02T14:47:27Z</time>
      </trkpt>
      <trkpt lat="48.10782" lon="6.70859">
        <ele>733.9</ele>
        <time>2025-02-02T14:47:35Z</time>
      </trkpt>
      <trkpt lat="48.1078" lon="6.70873">
        <ele>734</ele>
        <time>2025-02-02T14:47:43Z</time>
      </trkpt>
      <trkpt lat="48.10778" lon="6.70888">
        <ele>734.1</ele>
        <time>2025-02-02T14:47:51Z</time>
      </trkpt>
      <trkpt lat="48.10776" lon="6.70903">
        <ele>734.1</ele>
        <time>2025-02-02T14:47:59Z</time>
      </trkpt>
      <trkpt lat="48.10774" lon="6.70918">
        <ele>734.1</ele>
        <time>2025-02-02T14:48:07Z</time>
      </trkpt>
      <trkpt lat="48.10773" lon="6.70933">
        <ele>734.1</ele>
        <time>2025-02-02T14:48:16Z</time>
      </trkpt>
      <trkpt lat="48.10775" lon="6.70948">
        <ele>734.2</ele>
        <time>2025-02-02T14:48:24Z</time>
      </trkpt>
      <trkpt lat="48.10774" lon="6.70962">
        <ele>734.5</ele>
        <time>2025-02-02T14:48:34Z</time>
      </trkpt>
      <trkpt lat="48.10775" lon="6.70976">
        <ele>734.8</ele>
        <time>2025-02-02T14:48:41Z</time>
      </trkpt>
      <trkpt lat="48.10772" lon="6.70991">
        <ele>735.3</ele>
        <time>2025-02-02T14:48:49Z</time>
      </trkpt>
      <trkpt lat="48.10772" lon="6.70994">
        <ele>735.4</ele>
        <time>2025-02-02T14:48:56Z</time>
      </trkpt>
      <trkpt lat="48.10772" lon="6.70994">
        <ele>735.4</ele>
        <time>2025-02-02T14:48:57Z</time>
      </trkpt>
      <trkpt lat="48.10772" lon="6.71">
        <ele>735.5</ele>
        <time>2025-02-02T14:50:00Z</time>
      </trkpt>
      <trkpt lat="48.10772" lon="6.71001">
        <ele>735.6</ele>
        <time>2025-02-02T14:50:01Z</time>
      </trkpt>
      <trkpt lat="48.10772" lon="6.71003">
        <ele>735.6</ele>
        <time>2025-02-02T14:50:02Z</time>
      </trkpt>
      <trkpt lat="48.1077" lon="6.71013">
        <ele>735.9</ele>
        <time>2025-02-02T14:50:13Z</time>
      </trkpt>
      <trkpt lat="48.1077" lon="6.71013">
        <ele>735.9</ele>
        <time>2025-02-02T14:50:14Z</time>
      </trkpt>
      <trkpt lat="48.1077" lon="6.71014">
        <ele>736</ele>
        <time>2025-02-02T14:50:39Z</time>
      </trkpt>
      <trkpt lat="48.1077" lon="6.71016">
        <ele>736</ele>
        <time>2025-02-02T14:50:40Z</time>
      </trkpt>
      <trkpt lat="48.1077" lon="6.71019">
        <ele>736.1</ele>
        <time>2025-02-02T14:50:45Z</time>
      </trkpt>
      <trkpt lat="48.1077" lon="6.71019">
        <ele>736.1</ele>
        <time>2025-02-02T14:50:46Z</time>
      </trkpt>
      <trkpt lat="48.1077" lon="6.7102">
        <ele>736.1</ele>
        <time>2025-02-02T14:50:47Z</time>
      </trkpt>
      <trkpt lat="48.1077" lon="6.71021">
        <ele>736.2</ele>
        <time>2025-02-02T14:50:48Z</time>
      </trkpt>
      <trkpt lat="48.1077" lon="6.71023">
        <ele>736.2</ele>
        <time>2025-02-02T14:50:49Z</time>
      </trkpt>
      <trkpt lat="48.10769" lon="6.71024">
        <ele>736.2</ele>
        <time>2025-02-02T14:50:50Z</time>
      </trkpt>
      <trkpt lat="48.10766" lon="6.71036">
        <ele>736.6</ele>
        <time>2025-02-02T14:50:58Z</time>
      </trkpt>
      <trkpt lat="48.10763" lon="6.71051">
        <ele>736.9</ele>
        <time>2025-02-02T14:51:06Z</time>
      </trkpt>
      <trkpt lat="48.10761" lon="6.71065">
        <ele>737.1</ele>
        <time>2025-02-02T14:51:14Z</time>
      </trkpt>
      <trkpt lat="48.10757" lon="6.71078">
        <ele>737.4</ele>
        <time>2025-02-02T14:51:23Z</time>
      </trkpt>
      <trkpt lat="48.10751" lon="6.71089">
        <ele>737.6</ele>
        <time>2025-02-02T14:51:30Z</time>
      </trkpt>
      <trkpt lat="48.1075" lon="6.71088">
        <ele>737.7</ele>
        <time>2025-02-02T14:51:36Z</time>
      </trkpt>
      <trkpt lat="48.1075" lon="6.71088">
        <ele>737.7</ele>
        <time>2025-02-02T14:51:37Z</time>
      </trkpt>
      <trkpt lat="48.1075" lon="6.71088">
        <ele>737.7</ele>
        <time>2025-02-02T14:51:38Z</time>
      </trkpt>
      <trkpt lat="48.10749" lon="6.71089">
        <ele>737.7</ele>
        <time>2025-02-02T14:51:44Z</time>
      </trkpt>
      <trkpt lat="48.10748" lon="6.71091">
        <ele>737.8</ele>
        <time>2025-02-02T14:51:45Z</time>
      </trkpt>
      <trkpt lat="48.10745" lon="6.71104">
        <ele>738</ele>
        <time>2025-02-02T14:51:54Z</time>
      </trkpt>
      <trkpt lat="48.10741" lon="6.71117">
        <ele>738.3</ele>
        <time>2025-02-02T14:52:04Z</time>
      </trkpt>
      <trkpt lat="48.1074" lon="6.71131">
        <ele>738.6</ele>
        <time>2025-02-02T14:52:12Z</time>
      </trkpt>
      <trkpt lat="48.10736" lon="6.71143">
        <ele>738.8</ele>
        <time>2025-02-02T14:52:19Z</time>
      </trkpt>
      <trkpt lat="48.1073" lon="6.71154">
        <ele>739.1</ele>
        <time>2025-02-02T14:52:26Z</time>
      </trkpt>
      <trkpt lat="48.10722" lon="6.71162">
        <ele>739.4</ele>
        <time>2025-02-02T14:52:33Z</time>
      </trkpt>
      <trkpt lat="48.10715" lon="6.71172">
        <ele>739.6</ele>
        <time>2025-02-02T14:52:41Z</time>
      </trkpt>
      <trkpt lat="48.10708" lon="6.71181">
        <ele>739.9</ele>
        <time>2025-02-02T14:52:51Z</time>
      </trkpt>
      <trkpt lat="48.10701" lon="6.71191">
        <ele>740.2</ele>
        <time>2025-02-02T14:53:00Z</time>
      </trkpt>
      <trkpt lat="48.10692" lon="6.71199">
        <ele>740.6</ele>
        <time>2025-02-02T14:53:09Z</time>
      </trkpt>
      <trkpt lat="48.10691" lon="6.71202">
        <ele>740.7</ele>
        <time>2025-02-02T14:53:16Z</time>
      </trkpt>
      <trkpt lat="48.10691" lon="6.71202">
        <ele>740.7</ele>
        <time>2025-02-02T14:53:17Z</time>
      </trkpt>
      <trkpt lat="48.10687" lon="6.71206">
        <ele>740.9</ele>
        <time>2025-02-02T14:53:28Z</time>
      </trkpt>
      <trkpt lat="48.10686" lon="6.71207">
        <ele>741</ele>
        <time>2025-02-02T14:53:29Z</time>
      </trkpt>
      <trkpt lat="48.10678" lon="6.71214">
        <ele>741.4</ele>
        <time>2025-02-02T14:53:37Z</time>
      </trkpt>
      <trkpt lat="48.1067" lon="6.71223">
        <ele>741.9</ele>
        <time>2025-02-02T14:53:46Z</time>
      </trkpt>
      <trkpt lat="48.10662" lon="6.71232">
        <ele>742.5</ele>
        <time>2025-02-02T14:53:55Z</time>
      </trkpt>
      <trkpt lat="48.10655" lon="6.71241">
        <ele>743.1</ele>
        <time>2025-02-02T14:54:05Z</time>
      </trkpt>
      <trkpt lat="48.10647" lon="6.71251">
        <ele>743.7</ele>
        <time>2025-02-02T14:54:13Z</time>
      </trkpt>
      <trkpt lat="48.10641" lon="6.7126">
        <ele>744.2</ele>
        <time>2025-02-02T14:54:21Z</time>
      </trkpt>
      <trkpt lat="48.10634" lon="6.7127">
        <ele>744.6</ele>
        <time>2025-02-02T14:54:29Z</time>
      </trkpt>
      <trkpt lat="48.10627" lon="6.71279">
        <ele>745</ele>
        <time>2025-02-02T14:54:37Z</time>
      </trkpt>
      <trkpt lat="48.10619" lon="6.71288">
        <ele>745.2</ele>
        <time>2025-02-02T14:54:46Z</time>
      </trkpt>
      <trkpt lat="48.10615" lon="6.71292">
        <ele>745.3</ele>
        <time>2025-02-02T14:54:54Z</time>
      </trkpt>
      <trkpt lat="48.10615" lon="6.71292">
        <ele>745.3</ele>
        <time>2025-02-02T14:54:55Z</time>
      </trkpt>
      <trkpt lat="48.10614" lon="6.71295">
        <ele>745.4</ele>
        <time>2025-02-02T14:55:01Z</time>
      </trkpt>
      <trkpt lat="48.10613" lon="6.71296">
        <ele>745.4</ele>
        <time>2025-02-02T14:55:02Z</time>
      </trkpt>
      <trkpt lat="48.10612" lon="6.71296">
        <ele>745.4</ele>
        <time>2025-02-02T14:55:03Z</time>
      </trkpt>
      <trkpt lat="48.10605" lon="6.71304">
        <ele>745.5</ele>
        <time>2025-02-02T14:55:11Z</time>
      </trkpt>
      <trkpt lat="48.10596" lon="6.71312">
        <ele>745.6</ele>
        <time>2025-02-02T14:55:20Z</time>
      </trkpt>
      <trkpt lat="48.10595" lon="6.71312">
        <ele>745.6</ele>
        <time>2025-02-02T14:55:23Z</time>
      </trkpt>
      <trkpt lat="48.10595" lon="6.71312">
        <ele>745.6</ele>
        <time>2025-02-02T14:55:24Z</time>
      </trkpt>
      <trkpt lat="48.10595" lon="6.71313">
        <ele>745.6</ele>
        <time>2025-02-02T14:55:33Z</time>
      </trkpt>
      <trkpt lat="48.10594" lon="6.71314">
        <ele>745.6</ele>
        <time>2025-02-02T14:55:34Z</time>
      </trkpt>
      <trkpt lat="48.10593" lon="6.71315">
        <ele>745.6</ele>
        <time>2025-02-02T14:55:35Z</time>
      </trkpt>
      <trkpt lat="48.10586" lon="6.71323">
        <ele>745.4</ele>
        <time>2025-02-02T14:55:46Z</time>
      </trkpt>
      <trkpt lat="48.10585" lon="6.71323">
        <ele>745.4</ele>
        <time>2025-02-02T14:55:50Z</time>
      </trkpt>
      <trkpt lat="48.10585" lon="6.71323">
        <ele>745.4</ele>
        <time>2025-02-02T14:55:51Z</time>
      </trkpt>
      <trkpt lat="48.10585" lon="6.71323">
        <ele>745.4</ele>
        <time>2025-02-02T14:55:52Z</time>
      </trkpt>
      <trkpt lat="48.10584" lon="6.71325">
        <ele>745.4</ele>
        <time>2025-02-02T14:55:58Z</time>
      </trkpt>
      <trkpt lat="48.10583" lon="6.71326">
        <ele>745.4</ele>
        <time>2025-02-02T14:55:59Z</time>
      </trkpt>
      <trkpt lat="48.10583" lon="6.71327">
        <ele>745.3</ele>
        <time>2025-02-02T14:56:00Z</time>
      </trkpt>
      <trkpt lat="48.10574" lon="6.71334">
        <ele>745</ele>
        <time>2025-02-02T14:56:10Z</time>
      </trkpt>
      <trkpt lat="48.10565" lon="6.71341">
        <ele>744.6</ele>
        <time>2025-02-02T14:56:20Z</time>
      </trkpt>
      <trkpt lat="48.10557" lon="6.71349">
        <ele>744.2</ele>
        <time>2025-02-02T14:56:28Z</time>
      </trkpt>
      <trkpt lat="48.10549" lon="6.71355">
        <ele>743.9</ele>
        <time>2025-02-02T14:56:36Z</time>
      </trkpt>
      <trkpt lat="48.1054" lon="6.71361">
        <ele>743.5</ele>
        <time>2025-02-02T14:56:44Z</time>
      </trkpt>
      <trkpt lat="48.10531" lon="6.71366">
        <ele>743.2</ele>
        <time>2025-02-02T14:56:53Z</time>
      </trkpt>
      <trkpt lat="48.10522" lon="6.71371">
        <ele>742.9</ele>
        <time>2025-02-02T14:57:06Z</time>
      </trkpt>
      <trkpt lat="48.10513" lon="6.71377">
        <ele>742.7</ele>
        <time>2025-02-02T14:57:15Z</time>
      </trkpt>
      <trkpt lat="48.10504" lon="6.71382">
        <ele>742.5</ele>
        <time>2025-02-02T14:57:23Z</time>
      </trkpt>
      <trkpt lat="48.10497" lon="6.71391">
        <ele>742.3</ele>
        <time>2025-02-02T14:57:32Z</time>
      </trkpt>
      <trkpt lat="48.10497" lon="6.71392">
        <ele>742.3</ele>
        <time>2025-02-02T14:57:36Z</time>
      </trkpt>
      <trkpt lat="48.10497" lon="6.71392">
        <ele>742.3</ele>
        <time>2025-02-02T14:57:37Z</time>
      </trkpt>
      <trkpt lat="48.10496" lon="6.71394">
        <ele>742.3</ele>
        <time>2025-02-02T14:57:51Z</time>
      </trkpt>
      <trkpt lat="48.10496" lon="6.71395">
        <ele>742.3</ele>
        <time>2025-02-02T14:57:52Z</time>
      </trkpt>
      <trkpt lat="48.10496" lon="6.71396">
        <ele>742.2</ele>
        <time>2025-02-02T14:57:53Z</time>
      </trkpt>
      <trkpt lat="48.105" lon="6.7141">
        <ele>743.4</ele>
        <time>2025-02-02T14:58:03Z</time>
      </trkpt>
      <trkpt lat="48.10502" lon="6.71414">
        <ele>743.7</ele>
        <time>2025-02-02T14:58:11Z</time>
      </trkpt>
      <trkpt lat="48.10502" lon="6.71414">
        <ele>743.7</ele>
        <time>2025-02-02T14:58:12Z</time>
      </trkpt>
      <trkpt lat="48.10502" lon="6.71414">
        <ele>743.7</ele>
        <time>2025-02-02T14:58:13Z</time>
      </trkpt>
      <trkpt lat="48.10503" lon="6.71416">
        <ele>743.8</ele>
        <time>2025-02-02T14:58:21Z</time>
      </trkpt>
      <trkpt lat="48.10504" lon="6.71418">
        <ele>743.8</ele>
        <time>2025-02-02T14:58:22Z</time>
      </trkpt>
      <trkpt lat="48.10507" lon="6.71431">
        <ele>744.3</ele>
        <time>2025-02-02T14:58:31Z</time>
      </trkpt>
      <trkpt lat="48.10512" lon="6.71444">
        <ele>744.9</ele>
        <time>2025-02-02T14:58:40Z</time>
      </trkpt>
      <trkpt lat="48.10515" lon="6.71457">
        <ele>745.4</ele>
        <time>2025-02-02T14:58:49Z</time>
      </trkpt>
      <trkpt lat="48.1052" lon="6.71468">
        <ele>745.9</ele>
        <time>2025-02-02T14:58:57Z</time>
      </trkpt>
      <trkpt lat="48.10524" lon="6.71482">
        <ele>746.4</ele>
        <time>2025-02-02T14:59:05Z</time>
      </trkpt>
      <trkpt lat="48.10528" lon="6.71495">
        <ele>746.8</ele>
        <time>2025-02-02T14:59:13Z</time>
      </trkpt>
      <trkpt lat="48.10534" lon="6.71507">
        <ele>747.3</ele>
        <time>2025-02-02T14:59:22Z</time>
      </trkpt>
      <trkpt lat="48.10538" lon="6.71519">
        <ele>747.8</ele>
        <time>2025-02-02T14:59:30Z</time>
      </trkpt>
      <trkpt lat="48.10543" lon="6.71532">
        <ele>748.2</ele>
        <time>2025-02-02T14:59:39Z</time>
      </trkpt>
      <trkpt lat="48.10546" lon="6.71545">
        <ele>748.5</ele>
        <time>2025-02-02T14:59:46Z</time>
      </trkpt>
      <trkpt lat="48.10555" lon="6.71547">
        <ele>748.8</ele>
        <time>2025-02-02T15:00:00Z</time>
      </trkpt>
      <trkpt lat="48.10558" lon="6.71544">
        <ele>748.8</ele>
        <time>2025-02-02T15:00:08Z</time>
      </trkpt>
      <trkpt lat="48.10558" lon="6.71544">
        <ele>748.8</ele>
        <time>2025-02-02T15:00:09Z</time>
      </trkpt>
      <trkpt lat="48.10558" lon="6.71544">
        <ele>748.8</ele>
        <time>2025-02-02T15:00:10Z</time>
      </trkpt>
      <trkpt lat="48.10558" lon="6.71545">
        <ele>748.9</ele>
        <time>2025-02-02T15:00:11Z</time>
      </trkpt>
      <trkpt lat="48.10558" lon="6.71547">
        <ele>748.9</ele>
        <time>2025-02-02T15:00:12Z</time>
      </trkpt>
      <trkpt lat="48.10554" lon="6.71561">
        <ele>748.9</ele>
        <time>2025-02-02T15:00:20Z</time>
      </trkpt>
      <trkpt lat="48.10553" lon="6.71574">
        <ele>748.7</ele>
        <time>2025-02-02T15:00:28Z</time>
      </trkpt>
      <trkpt lat="48.10553" lon="6.71574">
        <ele>748.7</ele>
        <time>2025-02-02T15:00:31Z</time>
      </trkpt>
      <trkpt lat="48.10553" lon="6.71574">
        <ele>748.7</ele>
        <time>2025-02-02T15:00:32Z</time>
      </trkpt>
      <trkpt lat="48.10553" lon="6.71577">
        <ele>748.7</ele>
        <time>2025-02-02T15:00:49Z</time>
      </trkpt>
      <trkpt lat="48.10553" lon="6.71578">
        <ele>748.6</ele>
        <time>2025-02-02T15:00:50Z</time>
      </trkpt>
      <trkpt lat="48.10551" lon="6.71592">
        <ele>748.3</ele>
        <time>2025-02-02T15:01:02Z</time>
      </trkpt>
      <trkpt lat="48.10552" lon="6.71593">
        <ele>748.3</ele>
        <time>2025-02-02T15:01:06Z</time>
      </trkpt>
      <trkpt lat="48.10552" lon="6.71593">
        <ele>748.3</ele>
        <time>2025-02-02T15:01:07Z</time>
      </trkpt>
      <trkpt lat="48.10552" lon="6.71593">
        <ele>748.3</ele>
        <time>2025-02-02T15:01:08Z</time>
      </trkpt>
      <trkpt lat="48.10553" lon="6.71594">
        <ele>748.3</ele>
        <time>2025-02-02T15:01:11Z</time>
      </trkpt>
      <trkpt lat="48.10553" lon="6.71595">
        <ele>748.2</ele>
        <time>2025-02-02T15:01:12Z</time>
      </trkpt>
      <trkpt lat="48.10553" lon="6.71597">
        <ele>748.2</ele>
        <time>2025-02-02T15:01:13Z</time>
      </trkpt>
      <trkpt lat="48.10556" lon="6.7161">
        <ele>747.8</ele>
        <time>2025-02-02T15:01:24Z</time>
      </trkpt>
      <trkpt lat="48.10557" lon="6.71624">
        <ele>747.5</ele>
        <time>2025-02-02T15:01:31Z</time>
      </trkpt>
      <trkpt lat="48.1056" lon="6.71626">
        <ele>747.3</ele>
        <time>2025-02-02T15:01:38Z</time>
      </trkpt>
      <trkpt lat="48.1056" lon="6.71628">
        <ele>747.3</ele>
        <time>2025-02-02T15:01:39Z</time>
      </trkpt>
      <trkpt lat="48.10561" lon="6.71629">
        <ele>747.3</ele>
        <time>2025-02-02T15:01:40Z</time>
      </trkpt>
      <trkpt lat="48.10561" lon="6.7163">
        <ele>747.2</ele>
        <time>2025-02-02T15:01:41Z</time>
      </trkpt>
      <trkpt lat="48.10561" lon="6.71631">
        <ele>747.2</ele>
        <time>2025-02-02T15:01:42Z</time>
      </trkpt>
      <trkpt lat="48.10562" lon="6.71632">
        <ele>747.2</ele>
        <time>2025-02-02T15:01:43Z</time>
      </trkpt>
      <trkpt lat="48.10566" lon="6.71644">
        <ele>746.8</ele>
        <time>2025-02-02T15:01:54Z</time>
      </trkpt>
      <trkpt lat="48.10569" lon="6.71656">
        <ele>746.5</ele>
        <time>2025-02-02T15:02:05Z</time>
      </trkpt>
      <trkpt lat="48.10575" lon="6.71668">
        <ele>746.1</ele>
        <time>2025-02-02T15:02:12Z</time>
      </trkpt>
      <trkpt lat="48.10578" lon="6.71683">
        <ele>745.6</ele>
        <time>2025-02-02T15:02:22Z</time>
      </trkpt>
      <trkpt lat="48.10579" lon="6.71698">
        <ele>745.2</ele>
        <time>2025-02-02T15:02:26Z</time>
      </trkpt>
      <trkpt lat="48.10578" lon="6.71713">
        <ele>744.8</ele>
        <time>2025-02-02T15:02:32Z</time>
      </trkpt>
      <trkpt lat="48.10577" lon="6.71727">
        <ele>744.5</ele>
        <time>2025-02-02T15:02:41Z</time>
      </trkpt>
      <trkpt lat="48.10576" lon="6.71734">
        <ele>744.4</ele>
        <time>2025-02-02T15:02:51Z</time>
      </trkpt>
      <trkpt lat="48.10576" lon="6.71734">
        <ele>744.4</ele>
        <time>2025-02-02T15:02:52Z</time>
      </trkpt>
      <trkpt lat="48.10575" lon="6.71735">
        <ele>744.3</ele>
        <time>2025-02-02T15:02:53Z</time>
      </trkpt>
      <trkpt lat="48.10575" lon="6.71736">
        <ele>744.3</ele>
        <time>2025-02-02T15:02:54Z</time>
      </trkpt>
      <trkpt lat="48.10574" lon="6.71737">
        <ele>744.3</ele>
        <time>2025-02-02T15:02:55Z</time>
      </trkpt>
      <trkpt lat="48.10574" lon="6.71737">
        <ele>744.3</ele>
        <time>2025-02-02T15:02:56Z</time>
      </trkpt>
      <trkpt lat="48.10574" lon="6.71737">
        <ele>744.3</ele>
        <time>2025-02-02T15:02:57Z</time>
      </trkpt>
      <trkpt lat="48.10574" lon="6.71738">
        <ele>744.3</ele>
        <time>2025-02-02T15:02:58Z</time>
      </trkpt>
      <trkpt lat="48.10574" lon="6.71738">
        <ele>744.3</ele>
        <time>2025-02-02T15:02:59Z</time>
      </trkpt>
      <trkpt lat="48.10574" lon="6.71737">
        <ele>744.3</ele>
        <time>2025-02-02T15:03:00Z</time>
      </trkpt>
      <trkpt lat="48.10579" lon="6.71741">
        <ele>744.3</ele>
        <time>2025-02-02T15:03:15Z</time>
      </trkpt>
      <trkpt lat="48.10579" lon="6.71741">
        <ele>744.3</ele>
        <time>2025-02-02T15:03:16Z</time>
      </trkpt>
      <trkpt lat="48.10579" lon="6.71741">
        <ele>744.3</ele>
        <time>2025-02-02T15:03:17Z</time>
      </trkpt>
      <trkpt lat="48.10579" lon="6.71741">
        <ele>744.3</ele>
        <time>2025-02-02T15:03:18Z</time>
      </trkpt>
      <trkpt lat="48.10579" lon="6.71741">
        <ele>744.3</ele>
        <time>2025-02-02T15:03:19Z</time>
      </trkpt>
      <trkpt lat="48.10579" lon="6.71741">
        <ele>744.3</ele>
        <time>2025-02-02T15:03:20Z</time>
      </trkpt>
      <trkpt lat="48.10579" lon="6.71741">
        <ele>744.3</ele>
        <time>2025-02-02T15:03:21Z</time>
      </trkpt>
      <trkpt lat="48.10579" lon="6.71741">
        <ele>744.3</ele>
        <time>2025-02-02T15:03:22Z</time>
      </trkpt>
      <trkpt lat="48.1058" lon="6.71741">
        <ele>744.3</ele>
        <time>2025-02-02T15:06:08Z</time>
      </trkpt>
      <trkpt lat="48.10579" lon="6.7174">
        <ele>744.3</ele>
        <time>2025-02-02T15:06:09Z</time>
      </trkpt>
      <trkpt lat="48.10578" lon="6.71739">
        <ele>744.3</ele>
        <time>2025-02-02T15:06:16Z</time>
      </trkpt>
      <trkpt lat="48.10578" lon="6.71739">
        <ele>744.3</ele>
        <time>2025-02-02T15:06:17Z</time>
      </trkpt>
      <trkpt lat="48.10579" lon="6.71739">
        <ele>744.3</ele>
        <time>2025-02-02T15:06:26Z</time>
      </trkpt>
      <trkpt lat="48.1058" lon="6.7174">
        <ele>744.3</ele>
        <time>2025-02-02T15:06:27Z</time>
      </trkpt>
      <trkpt lat="48.10582" lon="6.71741">
        <ele>744.4</ele>
        <time>2025-02-02T15:06:31Z</time>
      </trkpt>
      <trkpt lat="48.10582" lon="6.71741">
        <ele>744.4</ele>
        <time>2025-02-02T15:06:32Z</time>
      </trkpt>
      <trkpt lat="48.10582" lon="6.71741">
        <ele>744.4</ele>
        <time>2025-02-02T15:07:48Z</time>
      </trkpt>
      <trkpt lat="48.10581" lon="6.71741">
        <ele>744.4</ele>
        <time>2025-02-02T15:07:49Z</time>
      </trkpt>
      <trkpt lat="48.10581" lon="6.71739">
        <ele>744.4</ele>
        <time>2025-02-02T15:07:50Z</time>
      </trkpt>
      <trkpt lat="48.10584" lon="6.71727">
        <ele>744.5</ele>
        <time>2025-02-02T15:07:59Z</time>
      </trkpt>
      <trkpt lat="48.10591" lon="6.71717">
        <ele>744.6</ele>
        <time>2025-02-02T15:08:07Z</time>
      </trkpt>
      <trkpt lat="48.10599" lon="6.71708">
        <ele>744.8</ele>
        <time>2025-02-02T15:08:17Z</time>
      </trkpt>
      <trkpt lat="48.10606" lon="6.71698">
        <ele>745.1</ele>
        <time>2025-02-02T15:08:28Z</time>
      </trkpt>
      <trkpt lat="48.10614" lon="6.71689">
        <ele>745.3</ele>
        <time>2025-02-02T15:08:35Z</time>
      </trkpt>
      <trkpt lat="48.10622" lon="6.71682">
        <ele>745.6</ele>
        <time>2025-02-02T15:08:43Z</time>
      </trkpt>
      <trkpt lat="48.10631" lon="6.71675">
        <ele>745.8</ele>
        <time>2025-02-02T15:08:53Z</time>
      </trkpt>
      <trkpt lat="48.10639" lon="6.71668">
        <ele>746.1</ele>
        <time>2025-02-02T15:09:02Z</time>
      </trkpt>
      <trkpt lat="48.10647" lon="6.71661">
        <ele>746.3</ele>
        <time>2025-02-02T15:09:11Z</time>
      </trkpt>
      <trkpt lat="48.10657" lon="6.71657">
        <ele>746.5</ele>
        <time>2025-02-02T15:09:20Z</time>
      </trkpt>
      <trkpt lat="48.10666" lon="6.71649">
        <ele>746.7</ele>
        <time>2025-02-02T15:09:26Z</time>
      </trkpt>
      <trkpt lat="48.10673" lon="6.71642">
        <ele>746.7</ele>
        <time>2025-02-02T15:09:34Z</time>
      </trkpt>
      <trkpt lat="48.10683" lon="6.71641">
        <ele>746.5</ele>
        <time>2025-02-02T15:09:42Z</time>
      </trkpt>
      <trkpt lat="48.10692" lon="6.71638">
        <ele>746.3</ele>
        <time>2025-02-02T15:09:50Z</time>
      </trkpt>
      <trkpt lat="48.10702" lon="6.71637">
        <ele>746</ele>
        <time>2025-02-02T15:09:58Z</time>
      </trkpt>
      <trkpt lat="48.1071" lon="6.7163">
        <ele>745.9</ele>
        <time>2025-02-02T15:10:06Z</time>
      </trkpt>
      <trkpt lat="48.1072" lon="6.71628">
        <ele>745.7</ele>
        <time>2025-02-02T15:10:15Z</time>
      </trkpt>
      <trkpt lat="48.10729" lon="6.71628">
        <ele>745.7</ele>
        <time>2025-02-02T15:10:23Z</time>
      </trkpt>
      <trkpt lat="48.10739" lon="6.71627">
        <ele>745.7</ele>
        <time>2025-02-02T15:10:30Z</time>
      </trkpt>
      <trkpt lat="48.10748" lon="6.71629">
        <ele>745.7</ele>
        <time>2025-02-02T15:10:37Z</time>
      </trkpt>
      <trkpt lat="48.10758" lon="6.71625">
        <ele>745.8</ele>
        <time>2025-02-02T15:10:45Z</time>
      </trkpt>
      <trkpt lat="48.10767" lon="6.71621">
        <ele>745.9</ele>
        <time>2025-02-02T15:10:55Z</time>
      </trkpt>
      <trkpt lat="48.10777" lon="6.7162">
        <ele>745.9</ele>
        <time>2025-02-02T15:11:02Z</time>
      </trkpt>
      <trkpt lat="48.10786" lon="6.71615">
        <ele>746</ele>
        <time>2025-02-02T15:11:10Z</time>
      </trkpt>
      <trkpt lat="48.10794" lon="6.71606">
        <ele>746.3</ele>
        <time>2025-02-02T15:11:18Z</time>
      </trkpt>
      <trkpt lat="48.10803" lon="6.71601">
        <ele>746.7</ele>
        <time>2025-02-02T15:11:27Z</time>
      </trkpt>
      <trkpt lat="48.10812" lon="6.71599">
        <ele>747.2</ele>
        <time>2025-02-02T15:11:36Z</time>
      </trkpt>
      <trkpt lat="48.10821" lon="6.71594">
        <ele>747.6</ele>
        <time>2025-02-02T15:11:42Z</time>
      </trkpt>
      <trkpt lat="48.1083" lon="6.71588">
        <ele>747.9</ele>
        <time>2025-02-02T15:11:50Z</time>
      </trkpt>
      <trkpt lat="48.10839" lon="6.71586">
        <ele>748.3</ele>
        <time>2025-02-02T15:11:57Z</time>
      </trkpt>
      <trkpt lat="48.10848" lon="6.71583">
        <ele>748.6</ele>
        <time>2025-02-02T15:12:04Z</time>
      </trkpt>
      <trkpt lat="48.10857" lon="6.71584">
        <ele>749</ele>
        <time>2025-02-02T15:12:12Z</time>
      </trkpt>
      <trkpt lat="48.10867" lon="6.71586">
        <ele>749.4</ele>
        <time>2025-02-02T15:12:21Z</time>
      </trkpt>
      <trkpt lat="48.10876" lon="6.71585">
        <ele>749.7</ele>
        <time>2025-02-02T15:12:33Z</time>
      </trkpt>
      <trkpt lat="48.10878" lon="6.71586">
        <ele>749.8</ele>
        <time>2025-02-02T15:12:38Z</time>
      </trkpt>
      <trkpt lat="48.10878" lon="6.71586">
        <ele>749.8</ele>
        <time>2025-02-02T15:12:39Z</time>
      </trkpt>
      <trkpt lat="48.10878" lon="6.71586">
        <ele>749.8</ele>
        <time>2025-02-02T15:12:40Z</time>
      </trkpt>
      <trkpt lat="48.10881" lon="6.71585">
        <ele>749.9</ele>
        <time>2025-02-02T15:12:46Z</time>
      </trkpt>
      <trkpt lat="48.10882" lon="6.71585">
        <ele>749.9</ele>
        <time>2025-02-02T15:12:47Z</time>
      </trkpt>
      <trkpt lat="48.10892" lon="6.7158">
        <ele>750.1</ele>
        <time>2025-02-02T15:12:56Z</time>
      </trkpt>
      <trkpt lat="48.10901" lon="6.71577">
        <ele>750.2</ele>
        <time>2025-02-02T15:13:03Z</time>
      </trkpt>
      <trkpt lat="48.10911" lon="6.71577">
        <ele>750.2</ele>
        <time>2025-02-02T15:13:14Z</time>
      </trkpt>
      <trkpt lat="48.10921" lon="6.71573">
        <ele>750</ele>
        <time>2025-02-02T15:13:23Z</time>
      </trkpt>
      <trkpt lat="48.1093" lon="6.71571">
        <ele>749.9</ele>
        <time>2025-02-02T15:13:32Z</time>
      </trkpt>
      <trkpt lat="48.10939" lon="6.71568">
        <ele>749.7</ele>
        <time>2025-02-02T15:13:41Z</time>
      </trkpt>
      <trkpt lat="48.10948" lon="6.71561">
        <ele>749.6</ele>
        <time>2025-02-02T15:13:49Z</time>
      </trkpt>
      <trkpt lat="48.10957" lon="6.71556">
        <ele>749.4</ele>
        <time>2025-02-02T15:13:57Z</time>
      </trkpt>
      <trkpt lat="48.10966" lon="6.71551">
        <ele>749.3</ele>
        <time>2025-02-02T15:14:05Z</time>
      </trkpt>
      <trkpt lat="48.10976" lon="6.71544">
        <ele>749.1</ele>
        <time>2025-02-02T15:14:12Z</time>
      </trkpt>
      <trkpt lat="48.10981" lon="6.71541">
        <ele>749</ele>
        <time>2025-02-02T15:14:21Z</time>
      </trkpt>
      <trkpt lat="48.10981" lon="6.71541">
        <ele>749</ele>
        <time>2025-02-02T15:14:22Z</time>
      </trkpt>
      <trkpt lat="48.10982" lon="6.71541">
        <ele>748.9</ele>
        <time>2025-02-02T15:14:35Z</time>
      </trkpt>
      <trkpt lat="48.10982" lon="6.7154">
        <ele>748.9</ele>
        <time>2025-02-02T15:14:36Z</time>
      </trkpt>
      <trkpt lat="48.10983" lon="6.7154">
        <ele>748.9</ele>
        <time>2025-02-02T15:14:37Z</time>
      </trkpt>
      <trkpt lat="48.10992" lon="6.71533">
        <ele>748.4</ele>
        <time>2025-02-02T15:14:48Z</time>
      </trkpt>
      <trkpt lat="48.10995" lon="6.7153">
        <ele>748.2</ele>
        <time>2025-02-02T15:14:55Z</time>
      </trkpt>
      <trkpt lat="48.10994" lon="6.7153">
        <ele>748.1</ele>
        <time>2025-02-02T15:14:56Z</time>
      </trkpt>
      <trkpt lat="48.10995" lon="6.7153">
        <ele>748.1</ele>
        <time>2025-02-02T15:14:57Z</time>
      </trkpt>
      <trkpt lat="48.10996" lon="6.71531">
        <ele>748</ele>
        <time>2025-02-02T15:16:10Z</time>
      </trkpt>
      <trkpt lat="48.10996" lon="6.71531">
        <ele>748</ele>
        <time>2025-02-02T15:16:11Z</time>
      </trkpt>
      <trkpt lat="48.10996" lon="6.71531">
        <ele>748</ele>
        <time>2025-02-02T15:16:12Z</time>
      </trkpt>
      <trkpt lat="48.10996" lon="6.71531">
        <ele>748</ele>
        <time>2025-02-02T15:16:13Z</time>
      </trkpt>
      <trkpt lat="48.10996" lon="6.71531">
        <ele>748</ele>
        <time>2025-02-02T15:16:14Z</time>
      </trkpt>
      <trkpt lat="48.10996" lon="6.71531">
        <ele>748</ele>
        <time>2025-02-02T15:16:15Z</time>
      </trkpt>
      <trkpt lat="48.10998" lon="6.7153">
        <ele>747.8</ele>
        <time>2025-02-02T15:16:38Z</time>
      </trkpt>
      <trkpt lat="48.10999" lon="6.7153">
        <ele>747.7</ele>
        <time>2025-02-02T15:16:39Z</time>
      </trkpt>
      <trkpt lat="48.11001" lon="6.71529">
        <ele>747.6</ele>
        <time>2025-02-02T15:16:40Z</time>
      </trkpt>
      <trkpt lat="48.11009" lon="6.71522">
        <ele>746.9</ele>
        <time>2025-02-02T15:16:47Z</time>
      </trkpt>
      <trkpt lat="48.11014" lon="6.71516">
        <ele>746.3</ele>
        <time>2025-02-02T15:16:59Z</time>
      </trkpt>
      <trkpt lat="48.11015" lon="6.71515">
        <ele>746.3</ele>
        <time>2025-02-02T15:17:00Z</time>
      </trkpt>
      <trkpt lat="48.11016" lon="6.71515">
        <ele>746.2</ele>
        <time>2025-02-02T15:17:01Z</time>
      </trkpt>
      <trkpt lat="48.11017" lon="6.71514">
        <ele>746.1</ele>
        <time>2025-02-02T15:17:02Z</time>
      </trkpt>
      <trkpt lat="48.11017" lon="6.71514">
        <ele>746</ele>
        <time>2025-02-02T15:17:03Z</time>
      </trkpt>
      <trkpt lat="48.11026" lon="6.71506">
        <ele>745.1</ele>
        <time>2025-02-02T15:17:12Z</time>
      </trkpt>
      <trkpt lat="48.11035" lon="6.715">
        <ele>744.1</ele>
        <time>2025-02-02T15:17:19Z</time>
      </trkpt>
      <trkpt lat="48.11044" lon="6.71491">
        <ele>743.1</ele>
        <time>2025-02-02T15:17:30Z</time>
      </trkpt>
      <trkpt lat="48.11052" lon="6.71485">
        <ele>742.5</ele>
        <time>2025-02-02T15:17:37Z</time>
      </trkpt>
      <trkpt lat="48.1106" lon="6.71478">
        <ele>741.8</ele>
        <time>2025-02-02T15:17:45Z</time>
      </trkpt>
      <trkpt lat="48.11069" lon="6.71471">
        <ele>741.1</ele>
        <time>2025-02-02T15:17:52Z</time>
      </trkpt>
      <trkpt lat="48.11079" lon="6.71469">
        <ele>740.4</ele>
        <time>2025-02-02T15:18:00Z</time>
      </trkpt>
      <trkpt lat="48.11088" lon="6.71463">
        <ele>739.7</ele>
        <time>2025-02-02T15:18:07Z</time>
      </trkpt>
      <trkpt lat="48.11097" lon="6.71457">
        <ele>739.2</ele>
        <time>2025-02-02T15:18:15Z</time>
      </trkpt>
      <trkpt lat="48.11104" lon="6.71455">
        <ele>738.8</ele>
        <time>2025-02-02T15:18:23Z</time>
      </trkpt>
      <trkpt lat="48.11104" lon="6.71455">
        <ele>738.7</ele>
        <time>2025-02-02T15:18:24Z</time>
      </trkpt>
      <trkpt lat="48.11104" lon="6.71455">
        <ele>738.7</ele>
        <time>2025-02-02T15:18:25Z</time>
      </trkpt>
      <trkpt lat="48.11106" lon="6.71453">
        <ele>738.6</ele>
        <time>2025-02-02T15:18:39Z</time>
      </trkpt>
      <trkpt lat="48.11107" lon="6.71453">
        <ele>738.5</ele>
        <time>2025-02-02T15:18:40Z</time>
      </trkpt>
      <trkpt lat="48.11116" lon="6.71444">
        <ele>738.1</ele>
        <time>2025-02-02T15:18:49Z</time>
      </trkpt>
      <trkpt lat="48.11124" lon="6.71436">
        <ele>737.8</ele>
        <time>2025-02-02T15:18:58Z</time>
      </trkpt>
      <trkpt lat="48.11134" lon="6.71432">
        <ele>737.7</ele>
        <time>2025-02-02T15:19:06Z</time>
      </trkpt>
      <trkpt lat="48.11142" lon="6.71427">
        <ele>737.8</ele>
        <time>2025-02-02T15:19:14Z</time>
      </trkpt>
      <trkpt lat="48.11151" lon="6.71419">
        <ele>738.1</ele>
        <time>2025-02-02T15:19:23Z</time>
      </trkpt>
      <trkpt lat="48.11158" lon="6.71409">
        <ele>738.4</ele>
        <time>2025-02-02T15:19:31Z</time>
      </trkpt>
      <trkpt lat="48.11166" lon="6.71402">
        <ele>738.8</ele>
        <time>2025-02-02T15:19:38Z</time>
      </trkpt>
      <trkpt lat="48.11175" lon="6.71396">
        <ele>739.1</ele>
        <time>2025-02-02T15:19:47Z</time>
      </trkpt>
      <trkpt lat="48.11182" lon="6.71387">
        <ele>739.4</ele>
        <time>2025-02-02T15:19:56Z</time>
      </trkpt>
      <trkpt lat="48.1119" lon="6.71379">
        <ele>739.6</ele>
        <time>2025-02-02T15:20:03Z</time>
      </trkpt>
      <trkpt lat="48.11199" lon="6.7137">
        <ele>739.7</ele>
        <time>2025-02-02T15:20:10Z</time>
      </trkpt>
      <trkpt lat="48.11207" lon="6.71363">
        <ele>739.9</ele>
        <time>2025-02-02T15:20:18Z</time>
      </trkpt>
      <trkpt lat="48.11217" lon="6.71357">
        <ele>740</ele>
        <time>2025-02-02T15:20:26Z</time>
      </trkpt>
      <trkpt lat="48.11225" lon="6.71352">
        <ele>740.1</ele>
        <time>2025-02-02T15:20:33Z</time>
      </trkpt>
      <trkpt lat="48.11234" lon="6.71345">
        <ele>740.2</ele>
        <time>2025-02-02T15:20:42Z</time>
      </trkpt>
      <trkpt lat="48.11242" lon="6.71339">
        <ele>740.3</ele>
        <time>2025-02-02T15:20:50Z</time>
      </trkpt>
      <trkpt lat="48.11251" lon="6.71334">
        <ele>740.3</ele>
        <time>2025-02-02T15:20:56Z</time>
      </trkpt>
      <trkpt lat="48.1126" lon="6.71329">
        <ele>740.4</ele>
        <time>2025-02-02T15:21:05Z</time>
      </trkpt>
      <trkpt lat="48.11269" lon="6.71322">
        <ele>740.5</ele>
        <time>2025-02-02T15:21:13Z</time>
      </trkpt>
      <trkpt lat="48.11278" lon="6.71321">
        <ele>740.6</ele>
        <time>2025-02-02T15:21:22Z</time>
      </trkpt>
      <trkpt lat="48.11286" lon="6.71316">
        <ele>740.7</ele>
        <time>2025-02-02T15:21:28Z</time>
      </trkpt>
      <trkpt lat="48.11292" lon="6.71309">
        <ele>741</ele>
        <time>2025-02-02T15:21:38Z</time>
      </trkpt>
      <trkpt lat="48.11292" lon="6.71309">
        <ele>741</ele>
        <time>2025-02-02T15:21:39Z</time>
      </trkpt>
      <trkpt lat="48.11293" lon="6.71308">
        <ele>741</ele>
        <time>2025-02-02T15:22:21Z</time>
      </trkpt>
      <trkpt lat="48.11295" lon="6.71308">
        <ele>741.1</ele>
        <time>2025-02-02T15:22:22Z</time>
      </trkpt>
      <trkpt lat="48.11296" lon="6.71307">
        <ele>741.2</ele>
        <time>2025-02-02T15:22:29Z</time>
      </trkpt>
      <trkpt lat="48.11296" lon="6.71307">
        <ele>741.2</ele>
        <time>2025-02-02T15:22:30Z</time>
      </trkpt>
      <trkpt lat="48.11298" lon="6.71306">
        <ele>741.3</ele>
        <time>2025-02-02T15:22:48Z</time>
      </trkpt>
      <trkpt lat="48.11307" lon="6.71305">
        <ele>741.9</ele>
        <time>2025-02-02T15:22:55Z</time>
      </trkpt>
      <trkpt lat="48.11316" lon="6.71301">
        <ele>742.7</ele>
        <time>2025-02-02T15:23:02Z</time>
      </trkpt>
      <trkpt lat="48.11324" lon="6.71294">
        <ele>743.7</ele>
        <time>2025-02-02T15:23:11Z</time>
      </trkpt>
      <trkpt lat="48.11333" lon="6.71286">
        <ele>744.8</ele>
        <time>2025-02-02T15:23:22Z</time>
      </trkpt>
      <trkpt lat="48.11341" lon="6.71276">
        <ele>745.8</ele>
        <time>2025-02-02T15:23:32Z</time>
      </trkpt>
      <trkpt lat="48.11348" lon="6.71268">
        <ele>746.4</ele>
        <time>2025-02-02T15:23:43Z</time>
      </trkpt>
      <trkpt lat="48.11356" lon="6.7126">
        <ele>746.7</ele>
        <time>2025-02-02T15:23:54Z</time>
      </trkpt>
      <trkpt lat="48.11364" lon="6.71254">
        <ele>746.8</ele>
        <time>2025-02-02T15:24:03Z</time>
      </trkpt>
      <trkpt lat="48.11373" lon="6.7125">
        <ele>746.7</ele>
        <time>2025-02-02T15:24:15Z</time>
      </trkpt>
      <trkpt lat="48.11383" lon="6.71245">
        <ele>746.7</ele>
        <time>2025-02-02T15:24:22Z</time>
      </trkpt>
      <trkpt lat="48.11392" lon="6.7124">
        <ele>746.8</ele>
        <time>2025-02-02T15:24:32Z</time>
      </trkpt>
      <trkpt lat="48.11402" lon="6.71237">
        <ele>746.8</ele>
        <time>2025-02-02T15:24:40Z</time>
      </trkpt>
      <trkpt lat="48.11407" lon="6.71233">
        <ele>746.8</ele>
        <time>2025-02-02T15:24:48Z</time>
      </trkpt>
      <trkpt lat="48.11407" lon="6.71233">
        <ele>746.8</ele>
        <time>2025-02-02T15:24:49Z</time>
      </trkpt>
      <trkpt lat="48.11408" lon="6.71232">
        <ele>746.8</ele>
        <time>2025-02-02T15:25:03Z</time>
      </trkpt>
      <trkpt lat="48.11409" lon="6.71232">
        <ele>746.8</ele>
        <time>2025-02-02T15:25:04Z</time>
      </trkpt>
      <trkpt lat="48.11409" lon="6.71232">
        <ele>746.8</ele>
        <time>2025-02-02T15:25:08Z</time>
      </trkpt>
      <trkpt lat="48.11409" lon="6.71232">
        <ele>746.8</ele>
        <time>2025-02-02T15:25:09Z</time>
      </trkpt>
      <trkpt lat="48.11411" lon="6.71234">
        <ele>746.8</ele>
        <time>2025-02-02T15:25:19Z</time>
      </trkpt>
      <trkpt lat="48.11412" lon="6.71233">
        <ele>746.8</ele>
        <time>2025-02-02T15:25:20Z</time>
      </trkpt>
      <trkpt lat="48.11421" lon="6.71231">
        <ele>746.7</ele>
        <time>2025-02-02T15:25:29Z</time>
      </trkpt>
      <trkpt lat="48.11431" lon="6.7123">
        <ele>746.5</ele>
        <time>2025-02-02T15:25:38Z</time>
      </trkpt>
      <trkpt lat="48.1144" lon="6.71231">
        <ele>746.2</ele>
        <time>2025-02-02T15:25:44Z</time>
      </trkpt>
      <trkpt lat="48.1145" lon="6.71231">
        <ele>746</ele>
        <time>2025-02-02T15:25:54Z</time>
      </trkpt>
      <trkpt lat="48.1146" lon="6.71229">
        <ele>745.8</ele>
        <time>2025-02-02T15:26:03Z</time>
      </trkpt>
      <trkpt lat="48.1147" lon="6.71226">
        <ele>745.7</ele>
        <time>2025-02-02T15:26:13Z</time>
      </trkpt>
      <trkpt lat="48.11479" lon="6.71226">
        <ele>745.6</ele>
        <time>2025-02-02T15:26:28Z</time>
      </trkpt>
      <trkpt lat="48.11488" lon="6.71221">
        <ele>745.5</ele>
        <time>2025-02-02T15:26:38Z</time>
      </trkpt>
      <trkpt lat="48.11499" lon="6.7122">
        <ele>745.5</ele>
        <time>2025-02-02T15:26:48Z</time>
      </trkpt>
      <trkpt lat="48.11507" lon="6.71213">
        <ele>745.6</ele>
        <time>2025-02-02T15:26:53Z</time>
      </trkpt>
      <trkpt lat="48.11515" lon="6.71206">
        <ele>745.6</ele>
        <time>2025-02-02T15:27:03Z</time>
      </trkpt>
      <trkpt lat="48.11523" lon="6.71198">
        <ele>745.5</ele>
        <time>2025-02-02T15:27:14Z</time>
      </trkpt>
      <trkpt lat="48.11533" lon="6.71196">
        <ele>744.9</ele>
        <time>2025-02-02T15:27:27Z</time>
      </trkpt>
      <trkpt lat="48.11541" lon="6.71199">
        <ele>744</ele>
        <time>2025-02-02T15:27:38Z</time>
      </trkpt>
      <trkpt lat="48.11541" lon="6.712">
        <ele>743.9</ele>
        <time>2025-02-02T15:27:39Z</time>
      </trkpt>
      <trkpt lat="48.11544" lon="6.71204">
        <ele>743.3</ele>
        <time>2025-02-02T15:27:46Z</time>
      </trkpt>
      <trkpt lat="48.11545" lon="6.71203">
        <ele>743.2</ele>
        <time>2025-02-02T15:27:47Z</time>
      </trkpt>
      <trkpt lat="48.11545" lon="6.71203">
        <ele>743.1</ele>
        <time>2025-02-02T15:27:48Z</time>
      </trkpt>
      <trkpt lat="48.11552" lon="6.71196">
        <ele>741.9</ele>
        <time>2025-02-02T15:28:01Z</time>
      </trkpt>
      <trkpt lat="48.11554" lon="6.71197">
        <ele>741.7</ele>
        <time>2025-02-02T15:28:02Z</time>
      </trkpt>
      <trkpt lat="48.11554" lon="6.71197">
        <ele>741.6</ele>
        <time>2025-02-02T15:28:03Z</time>
      </trkpt>
      <trkpt lat="48.11555" lon="6.71196">
        <ele>741.5</ele>
        <time>2025-02-02T15:28:08Z</time>
      </trkpt>
      <trkpt lat="48.11556" lon="6.71196">
        <ele>741.4</ele>
        <time>2025-02-02T15:28:09Z</time>
      </trkpt>
      <trkpt lat="48.11556" lon="6.71195">
        <ele>741.3</ele>
        <time>2025-02-02T15:28:10Z</time>
      </trkpt>
      <trkpt lat="48.11563" lon="6.71191">
        <ele>740.3</ele>
        <time>2025-02-02T15:28:20Z</time>
      </trkpt>
      <trkpt lat="48.11563" lon="6.71191">
        <ele>740.3</ele>
        <time>2025-02-02T15:28:21Z</time>
      </trkpt>
      <trkpt lat="48.11563" lon="6.71191">
        <ele>740.3</ele>
        <time>2025-02-02T15:28:22Z</time>
      </trkpt>
      <trkpt lat="48.11565" lon="6.7119">
        <ele>740.2</ele>
        <time>2025-02-02T15:28:30Z</time>
      </trkpt>
      <trkpt lat="48.11565" lon="6.7119">
        <ele>740.1</ele>
        <time>2025-02-02T15:28:31Z</time>
      </trkpt>
      <trkpt lat="48.11566" lon="6.7119">
        <ele>739.9</ele>
        <time>2025-02-02T15:28:32Z</time>
      </trkpt>
      <trkpt lat="48.11576" lon="6.71187">
        <ele>738.9</ele>
        <time>2025-02-02T15:28:42Z</time>
      </trkpt>
      <trkpt lat="48.11585" lon="6.71186">
        <ele>738</ele>
        <time>2025-02-02T15:28:50Z</time>
      </trkpt>
      <trkpt lat="48.11595" lon="6.71181">
        <ele>737.2</ele>
        <time>2025-02-02T15:28:57Z</time>
      </trkpt>
      <trkpt lat="48.11603" lon="6.71172">
        <ele>736.2</ele>
        <time>2025-02-02T15:29:05Z</time>
      </trkpt>
      <trkpt lat="48.1161" lon="6.71163">
        <ele>735.3</ele>
        <time>2025-02-02T15:29:14Z</time>
      </trkpt>
      <trkpt lat="48.1162" lon="6.71158">
        <ele>734.2</ele>
        <time>2025-02-02T15:29:20Z</time>
      </trkpt>
      <trkpt lat="48.11628" lon="6.7115">
        <ele>733.2</ele>
        <time>2025-02-02T15:29:27Z</time>
      </trkpt>
      <trkpt lat="48.11635" lon="6.71142">
        <ele>732.3</ele>
        <time>2025-02-02T15:29:33Z</time>
      </trkpt>
      <trkpt lat="48.11641" lon="6.7113">
        <ele>731.4</ele>
        <time>2025-02-02T15:29:41Z</time>
      </trkpt>
      <trkpt lat="48.11649" lon="6.71123">
        <ele>730.4</ele>
        <time>2025-02-02T15:29:49Z</time>
      </trkpt>
      <trkpt lat="48.11655" lon="6.71111">
        <ele>729.4</ele>
        <time>2025-02-02T15:29:56Z</time>
      </trkpt>
      <trkpt lat="48.11661" lon="6.711">
        <ele>728.1</ele>
        <time>2025-02-02T15:30:03Z</time>
      </trkpt>
      <trkpt lat="48.11667" lon="6.7109">
        <ele>726.8</ele>
        <time>2025-02-02T15:30:10Z</time>
      </trkpt>
      <trkpt lat="48.11675" lon="6.71079">
        <ele>725.2</ele>
        <time>2025-02-02T15:30:19Z</time>
      </trkpt>
      <trkpt lat="48.11682" lon="6.71069">
        <ele>723.8</ele>
        <time>2025-02-02T15:30:26Z</time>
      </trkpt>
      <trkpt lat="48.11689" lon="6.71059">
        <ele>722.3</ele>
        <time>2025-02-02T15:30:32Z</time>
      </trkpt>
      <trkpt lat="48.11694" lon="6.71047">
        <ele>721</ele>
        <time>2025-02-02T15:30:40Z</time>
      </trkpt>
      <trkpt lat="48.11697" lon="6.71033">
        <ele>719.7</ele>
        <time>2025-02-02T15:30:49Z</time>
      </trkpt>
      <trkpt lat="48.11701" lon="6.7102">
        <ele>718.4</ele>
        <time>2025-02-02T15:30:58Z</time>
      </trkpt>
      <trkpt lat="48.11708" lon="6.71009">
        <ele>717</ele>
        <time>2025-02-02T15:31:07Z</time>
      </trkpt>
      <trkpt lat="48.11713" lon="6.70997">
        <ele>715.8</ele>
        <time>2025-02-02T15:31:15Z</time>
      </trkpt>
      <trkpt lat="48.11716" lon="6.70984">
        <ele>714.8</ele>
        <time>2025-02-02T15:31:23Z</time>
      </trkpt>
      <trkpt lat="48.11719" lon="6.7097">
        <ele>714.2</ele>
        <time>2025-02-02T15:31:35Z</time>
      </trkpt>
      <trkpt lat="48.11718" lon="6.70956">
        <ele>713.8</ele>
        <time>2025-02-02T15:31:43Z</time>
      </trkpt>
      <trkpt lat="48.1172" lon="6.70943">
        <ele>713.4</ele>
        <time>2025-02-02T15:31:51Z</time>
      </trkpt>
      <trkpt lat="48.11726" lon="6.70931">
        <ele>712.8</ele>
        <time>2025-02-02T15:31:59Z</time>
      </trkpt>
      <trkpt lat="48.11725" lon="6.70932">
        <ele>712.7</ele>
        <time>2025-02-02T15:32:01Z</time>
      </trkpt>
      <trkpt lat="48.11725" lon="6.70932">
        <ele>712.7</ele>
        <time>2025-02-02T15:32:02Z</time>
      </trkpt>
      <trkpt lat="48.11725" lon="6.70932">
        <ele>712.7</ele>
        <time>2025-02-02T15:32:03Z</time>
      </trkpt>
      <trkpt lat="48.11727" lon="6.70929">
        <ele>712.6</ele>
        <time>2025-02-02T15:32:31Z</time>
      </trkpt>
      <trkpt lat="48.11727" lon="6.70927">
        <ele>712.4</ele>
        <time>2025-02-02T15:32:32Z</time>
      </trkpt>
      <trkpt lat="48.11728" lon="6.70925">
        <ele>712.3</ele>
        <time>2025-02-02T15:32:33Z</time>
      </trkpt>
      <trkpt lat="48.1173" lon="6.70911">
        <ele>711.5</ele>
        <time>2025-02-02T15:32:42Z</time>
      </trkpt>
      <trkpt lat="48.11735" lon="6.70899">
        <ele>710.7</ele>
        <time>2025-02-02T15:32:50Z</time>
      </trkpt>
      <trkpt lat="48.11738" lon="6.70885">
        <ele>710</ele>
        <time>2025-02-02T15:33:01Z</time>
      </trkpt>
      <trkpt lat="48.11745" lon="6.70871">
        <ele>709.4</ele>
        <time>2025-02-02T15:33:07Z</time>
      </trkpt>
      <trkpt lat="48.1175" lon="6.70859">
        <ele>708.9</ele>
        <time>2025-02-02T15:33:14Z</time>
      </trkpt>
      <trkpt lat="48.11755" lon="6.70847">
        <ele>708.5</ele>
        <time>2025-02-02T15:33:19Z</time>
      </trkpt>
      <trkpt lat="48.11755" lon="6.70832">
        <ele>708.2</ele>
        <time>2025-02-02T15:33:29Z</time>
      </trkpt>
      <trkpt lat="48.11756" lon="6.70828">
        <ele>708.1</ele>
        <time>2025-02-02T15:33:35Z</time>
      </trkpt>
      <trkpt lat="48.11756" lon="6.70828">
        <ele>708.1</ele>
        <time>2025-02-02T15:33:36Z</time>
      </trkpt>
      <trkpt lat="48.11756" lon="6.70828">
        <ele>708.1</ele>
        <time>2025-02-02T15:33:37Z</time>
      </trkpt>
      <trkpt lat="48.11755" lon="6.70822">
        <ele>708</ele>
        <time>2025-02-02T15:35:49Z</time>
      </trkpt>
      <trkpt lat="48.11755" lon="6.70821">
        <ele>708</ele>
        <time>2025-02-02T15:35:50Z</time>
      </trkpt>
      <trkpt lat="48.11754" lon="6.70806">
        <ele>708.2</ele>
        <time>2025-02-02T15:36:02Z</time>
      </trkpt>
      <trkpt lat="48.1176" lon="6.70795">
        <ele>708.7</ele>
        <time>2025-02-02T15:36:11Z</time>
      </trkpt>
      <trkpt lat="48.11767" lon="6.70785">
        <ele>709.3</ele>
        <time>2025-02-02T15:36:18Z</time>
      </trkpt>
      <trkpt lat="48.11773" lon="6.70775">
        <ele>709.9</ele>
        <time>2025-02-02T15:36:26Z</time>
      </trkpt>
      <trkpt lat="48.11776" lon="6.7077">
        <ele>710.3</ele>
        <time>2025-02-02T15:36:34Z</time>
      </trkpt>
      <trkpt lat="48.11776" lon="6.7077">
        <ele>710.3</ele>
        <time>2025-02-02T15:36:35Z</time>
      </trkpt>
      <trkpt lat="48.11778" lon="6.70765">
        <ele>710.6</ele>
        <time>2025-02-02T15:37:40Z</time>
      </trkpt>
      <trkpt lat="48.11778" lon="6.70763">
        <ele>710.7</ele>
        <time>2025-02-02T15:37:41Z</time>
      </trkpt>
      <trkpt lat="48.11779" lon="6.70762">
        <ele>710.8</ele>
        <time>2025-02-02T15:37:42Z</time>
      </trkpt>
      <trkpt lat="48.11783" lon="6.7075">
        <ele>711.6</ele>
        <time>2025-02-02T15:37:51Z</time>
      </trkpt>
      <trkpt lat="48.11782" lon="6.7075">
        <ele>711.7</ele>
        <time>2025-02-02T15:37:55Z</time>
      </trkpt>
      <trkpt lat="48.11782" lon="6.7075">
        <ele>711.7</ele>
        <time>2025-02-02T15:37:56Z</time>
      </trkpt>
      <trkpt lat="48.11782" lon="6.7075">
        <ele>711.7</ele>
        <time>2025-02-02T15:37:57Z</time>
      </trkpt>
      <trkpt lat="48.11783" lon="6.70749">
        <ele>711.7</ele>
        <time>2025-02-02T15:38:08Z</time>
      </trkpt>
      <trkpt lat="48.11783" lon="6.70748">
        <ele>711.8</ele>
        <time>2025-02-02T15:38:09Z</time>
      </trkpt>
      <trkpt lat="48.11785" lon="6.70734">
        <ele>712.7</ele>
        <time>2025-02-02T15:38:19Z</time>
      </trkpt>
      <trkpt lat="48.11788" lon="6.70721">
        <ele>713.4</ele>
        <time>2025-02-02T15:38:28Z</time>
      </trkpt>
      <trkpt lat="48.11788" lon="6.70706">
        <ele>714.1</ele>
        <time>2025-02-02T15:38:37Z</time>
      </trkpt>
      <trkpt lat="48.11789" lon="6.70692">
        <ele>714.7</ele>
        <time>2025-02-02T15:38:45Z</time>
      </trkpt>
      <trkpt lat="48.11789" lon="6.70678">
        <ele>715.2</ele>
        <time>2025-02-02T15:38:54Z</time>
      </trkpt>
      <trkpt lat="48.1179" lon="6.70669">
        <ele>715.5</ele>
        <time>2025-02-02T15:39:04Z</time>
      </trkpt>
      <trkpt lat="48.1179" lon="6.70669">
        <ele>715.5</ele>
        <time>2025-02-02T15:39:05Z</time>
      </trkpt>
      <trkpt lat="48.11791" lon="6.70665">
        <ele>715.6</ele>
        <time>2025-02-02T15:39:09Z</time>
      </trkpt>
      <trkpt lat="48.11791" lon="6.70664">
        <ele>715.6</ele>
        <time>2025-02-02T15:39:10Z</time>
      </trkpt>
      <trkpt lat="48.11791" lon="6.7065">
        <ele>716</ele>
        <time>2025-02-02T15:39:18Z</time>
      </trkpt>
      <trkpt lat="48.11792" lon="6.70636">
        <ele>716.3</ele>
        <time>2025-02-02T15:39:26Z</time>
      </trkpt>
      <trkpt lat="48.11796" lon="6.70622">
        <ele>716.7</ele>
        <time>2025-02-02T15:39:35Z</time>
      </trkpt>
      <trkpt lat="48.118" lon="6.7061">
        <ele>716.9</ele>
        <time>2025-02-02T15:39:43Z</time>
      </trkpt>
      <trkpt lat="48.11806" lon="6.70599">
        <ele>717.1</ele>
        <time>2025-02-02T15:39:51Z</time>
      </trkpt>
      <trkpt lat="48.11812" lon="6.70588">
        <ele>717.3</ele>
        <time>2025-02-02T15:39:59Z</time>
      </trkpt>
      <trkpt lat="48.11815" lon="6.70584">
        <ele>717.3</ele>
        <time>2025-02-02T15:40:10Z</time>
      </trkpt>
      <trkpt lat="48.11815" lon="6.70584">
        <ele>717.3</ele>
        <time>2025-02-02T15:40:11Z</time>
      </trkpt>
      <trkpt lat="48.11815" lon="6.70584">
        <ele>717.3</ele>
        <time>2025-02-02T15:40:12Z</time>
      </trkpt>
      <trkpt lat="48.11816" lon="6.70583">
        <ele>717.3</ele>
        <time>2025-02-02T15:40:18Z</time>
      </trkpt>
      <trkpt lat="48.11816" lon="6.70581">
        <ele>717.4</ele>
        <time>2025-02-02T15:40:19Z</time>
      </trkpt>
      <trkpt lat="48.11817" lon="6.7058">
        <ele>717.4</ele>
        <time>2025-02-02T15:40:20Z</time>
      </trkpt>
      <trkpt lat="48.11818" lon="6.70577">
        <ele>717.4</ele>
        <time>2025-02-02T15:40:26Z</time>
      </trkpt>
      <trkpt lat="48.11818" lon="6.70577">
        <ele>717.4</ele>
        <time>2025-02-02T15:40:27Z</time>
      </trkpt>
      <trkpt lat="48.11818" lon="6.70577">
        <ele>717.4</ele>
        <time>2025-02-02T15:40:28Z</time>
      </trkpt>
      <trkpt lat="48.11818" lon="6.70577">
        <ele>717.4</ele>
        <time>2025-02-02T15:42:05Z</time>
      </trkpt>
      <trkpt lat="48.11818" lon="6.70576">
        <ele>717.4</ele>
        <time>2025-02-02T15:42:06Z</time>
      </trkpt>
      <trkpt lat="48.11819" lon="6.70575">
        <ele>717.4</ele>
        <time>2025-02-02T15:42:07Z</time>
      </trkpt>
      <trkpt lat="48.11825" lon="6.70563">
        <ele>717.4</ele>
        <time>2025-02-02T15:42:16Z</time>
      </trkpt>
      <trkpt lat="48.11829" lon="6.7055">
        <ele>717.5</ele>
        <time>2025-02-02T15:42:25Z</time>
      </trkpt>
      <trkpt lat="48.11834" lon="6.70538">
        <ele>717.6</ele>
        <time>2025-02-02T15:42:33Z</time>
      </trkpt>
      <trkpt lat="48.11839" lon="6.70526">
        <ele>717.6</ele>
        <time>2025-02-02T15:42:41Z</time>
      </trkpt>
      <trkpt lat="48.11844" lon="6.70513">
        <ele>717.5</ele>
        <time>2025-02-02T15:42:49Z</time>
      </trkpt>
      <trkpt lat="48.11848" lon="6.70501">
        <ele>717.4</ele>
        <time>2025-02-02T15:42:57Z</time>
      </trkpt>
      <trkpt lat="48.11854" lon="6.7049">
        <ele>717.2</ele>
        <time>2025-02-02T15:43:06Z</time>
      </trkpt>
      <trkpt lat="48.1186" lon="6.70478">
        <ele>716.8</ele>
        <time>2025-02-02T15:43:16Z</time>
      </trkpt>
      <trkpt lat="48.11867" lon="6.70468">
        <ele>716.2</ele>
        <time>2025-02-02T15:43:25Z</time>
      </trkpt>
      <trkpt lat="48.11874" lon="6.70459">
        <ele>715.5</ele>
        <time>2025-02-02T15:43:35Z</time>
      </trkpt>
      <trkpt lat="48.11882" lon="6.70453">
        <ele>714.8</ele>
        <time>2025-02-02T15:43:46Z</time>
      </trkpt>
      <trkpt lat="48.1189" lon="6.70444">
        <ele>714.3</ele>
        <time>2025-02-02T15:43:56Z</time>
      </trkpt>
      <trkpt lat="48.11898" lon="6.70435">
        <ele>714</ele>
        <time>2025-02-02T15:44:04Z</time>
      </trkpt>
      <trkpt lat="48.11906" lon="6.70426">
        <ele>713.7</ele>
        <time>2025-02-02T15:44:12Z</time>
      </trkpt>
      <trkpt lat="48.11913" lon="6.70416">
        <ele>713.4</ele>
        <time>2025-02-02T15:44:20Z</time>
      </trkpt>
      <trkpt lat="48.11919" lon="6.70405">
        <ele>713.2</ele>
        <time>2025-02-02T15:44:28Z</time>
      </trkpt>
      <trkpt lat="48.11926" lon="6.70395">
        <ele>713.1</ele>
        <time>2025-02-02T15:44:37Z</time>
      </trkpt>
      <trkpt lat="48.11932" lon="6.70385">
        <ele>713</ele>
        <time>2025-02-02T15:44:45Z</time>
      </trkpt>
      <trkpt lat="48.11939" lon="6.70376">
        <ele>712.9</ele>
        <time>2025-02-02T15:44:53Z</time>
      </trkpt>
      <trkpt lat="48.11947" lon="6.70365">
        <ele>712.9</ele>
        <time>2025-02-02T15:45:02Z</time>
      </trkpt>
      <trkpt lat="48.11953" lon="6.70355">
        <ele>712.9</ele>
        <time>2025-02-02T15:45:10Z</time>
      </trkpt>
      <trkpt lat="48.1196" lon="6.70345">
        <ele>712.9</ele>
        <time>2025-02-02T15:45:18Z</time>
      </trkpt>
      <trkpt lat="48.11967" lon="6.70336">
        <ele>713</ele>
        <time>2025-02-02T15:45:26Z</time>
      </trkpt>
      <trkpt lat="48.11974" lon="6.70327">
        <ele>713.1</ele>
        <time>2025-02-02T15:45:34Z</time>
      </trkpt>
      <trkpt lat="48.11981" lon="6.70317">
        <ele>713.3</ele>
        <time>2025-02-02T15:45:42Z</time>
      </trkpt>
      <trkpt lat="48.11988" lon="6.70307">
        <ele>713.4</ele>
        <time>2025-02-02T15:45:50Z</time>
      </trkpt>
      <trkpt lat="48.11994" lon="6.70296">
        <ele>713.5</ele>
        <time>2025-02-02T15:45:58Z</time>
      </trkpt>
      <trkpt lat="48.11999" lon="6.70282">
        <ele>713.6</ele>
        <time>2025-02-02T15:46:06Z</time>
      </trkpt>
      <trkpt lat="48.12004" lon="6.70269">
        <ele>713.7</ele>
        <time>2025-02-02T15:46:14Z</time>
      </trkpt>
      <trkpt lat="48.12009" lon="6.70257">
        <ele>714</ele>
        <time>2025-02-02T15:46:23Z</time>
      </trkpt>
      <trkpt lat="48.12015" lon="6.70247">
        <ele>714.2</ele>
        <time>2025-02-02T15:46:31Z</time>
      </trkpt>
      <trkpt lat="48.12021" lon="6.70235">
        <ele>714.4</ele>
        <time>2025-02-02T15:46:39Z</time>
      </trkpt>
      <trkpt lat="48.12027" lon="6.70223">
        <ele>714.5</ele>
        <time>2025-02-02T15:46:49Z</time>
      </trkpt>
      <trkpt lat="48.12033" lon="6.70215">
        <ele>714.5</ele>
        <time>2025-02-02T15:47:01Z</time>
      </trkpt>
      <trkpt lat="48.12033" lon="6.70215">
        <ele>714.5</ele>
        <time>2025-02-02T15:47:02Z</time>
      </trkpt>
      <trkpt lat="48.12033" lon="6.70215">
        <ele>714.5</ele>
        <time>2025-02-02T15:47:03Z</time>
      </trkpt>
      <trkpt lat="48.12034" lon="6.70213">
        <ele>714.6</ele>
        <time>2025-02-02T15:47:14Z</time>
      </trkpt>
      <trkpt lat="48.12034" lon="6.70211">
        <ele>714.6</ele>
        <time>2025-02-02T15:47:15Z</time>
      </trkpt>
      <trkpt lat="48.1204" lon="6.702">
        <ele>714.6</ele>
        <time>2025-02-02T15:47:23Z</time>
      </trkpt>
      <trkpt lat="48.12047" lon="6.70191">
        <ele>714.4</ele>
        <time>2025-02-02T15:47:31Z</time>
      </trkpt>
      <trkpt lat="48.12055" lon="6.70184">
        <ele>714.1</ele>
        <time>2025-02-02T15:47:40Z</time>
      </trkpt>
      <trkpt lat="48.12064" lon="6.70176">
        <ele>713.9</ele>
        <time>2025-02-02T15:47:49Z</time>
      </trkpt>
      <trkpt lat="48.12072" lon="6.70169">
        <ele>713.8</ele>
        <time>2025-02-02T15:47:57Z</time>
      </trkpt>
      <trkpt lat="48.12081" lon="6.70163">
        <ele>713.6</ele>
        <time>2025-02-02T15:48:05Z</time>
      </trkpt>
      <trkpt lat="48.12089" lon="6.70158">
        <ele>713.5</ele>
        <time>2025-02-02T15:48:13Z</time>
      </trkpt>
      <trkpt lat="48.12098" lon="6.70153">
        <ele>713.3</ele>
        <time>2025-02-02T15:48:21Z</time>
      </trkpt>
      <trkpt lat="48.12107" lon="6.70149">
        <ele>713.2</ele>
        <time>2025-02-02T15:48:29Z</time>
      </trkpt>
      <trkpt lat="48.12116" lon="6.70146">
        <ele>713</ele>
        <time>2025-02-02T15:48:38Z</time>
      </trkpt>
      <trkpt lat="48.12126" lon="6.70147">
        <ele>712.9</ele>
        <time>2025-02-02T15:48:47Z</time>
      </trkpt>
      <trkpt lat="48.12136" lon="6.70146">
        <ele>712.8</ele>
        <time>2025-02-02T15:48:56Z</time>
      </trkpt>
      <trkpt lat="48.12145" lon="6.70145">
        <ele>712.6</ele>
        <time>2025-02-02T15:49:06Z</time>
      </trkpt>
      <trkpt lat="48.12154" lon="6.70146">
        <ele>712.4</ele>
        <time>2025-02-02T15:49:15Z</time>
      </trkpt>
      <trkpt lat="48.12163" lon="6.70144">
        <ele>712.2</ele>
        <time>2025-02-02T15:49:24Z</time>
      </trkpt>
      <trkpt lat="48.12172" lon="6.70149">
        <ele>711.9</ele>
        <time>2025-02-02T15:49:34Z</time>
      </trkpt>
      <trkpt lat="48.12181" lon="6.7015">
        <ele>711.6</ele>
        <time>2025-02-02T15:49:41Z</time>
      </trkpt>
      <trkpt lat="48.12191" lon="6.70149">
        <ele>711.3</ele>
        <time>2025-02-02T15:49:49Z</time>
      </trkpt>
      <trkpt lat="48.12201" lon="6.70149">
        <ele>710.8</ele>
        <time>2025-02-02T15:49:58Z</time>
      </trkpt>
      <trkpt lat="48.1221" lon="6.70154">
        <ele>710.3</ele>
        <time>2025-02-02T15:50:06Z</time>
      </trkpt>
      <trkpt lat="48.12219" lon="6.70155">
        <ele>709.9</ele>
        <time>2025-02-02T15:50:15Z</time>
      </trkpt>
      <trkpt lat="48.12229" lon="6.70156">
        <ele>709.4</ele>
        <time>2025-02-02T15:50:24Z</time>
      </trkpt>
      <trkpt lat="48.12238" lon="6.70157">
        <ele>709</ele>
        <time>2025-02-02T15:50:31Z</time>
      </trkpt>
      <trkpt lat="48.12248" lon="6.70157">
        <ele>708.7</ele>
        <time>2025-02-02T15:50:39Z</time>
      </trkpt>
      <trkpt lat="48.12257" lon="6.70155">
        <ele>708.6</ele>
        <time>2025-02-02T15:50:47Z</time>
      </trkpt>
      <trkpt lat="48.12265" lon="6.70151">
        <ele>708.5</ele>
        <time>2025-02-02T15:50:55Z</time>
      </trkpt>
      <trkpt lat="48.12274" lon="6.70145">
        <ele>708.5</ele>
        <time>2025-02-02T15:51:03Z</time>
      </trkpt>
      <trkpt lat="48.12283" lon="6.70138">
        <ele>708.5</ele>
        <time>2025-02-02T15:51:12Z</time>
      </trkpt>
      <trkpt lat="48.1229" lon="6.7013">
        <ele>708.4</ele>
        <time>2025-02-02T15:51:22Z</time>
      </trkpt>
      <trkpt lat="48.12299" lon="6.70124">
        <ele>708.3</ele>
        <time>2025-02-02T15:51:31Z</time>
      </trkpt>
      <trkpt lat="48.12306" lon="6.70116">
        <ele>708.1</ele>
        <time>2025-02-02T15:51:40Z</time>
      </trkpt>
      <trkpt lat="48.12315" lon="6.7011">
        <ele>707.7</ele>
        <time>2025-02-02T15:51:50Z</time>
      </trkpt>
      <trkpt lat="48.12324" lon="6.70108">
        <ele>707.4</ele>
        <time>2025-02-02T15:51:57Z</time>
      </trkpt>
      <trkpt lat="48.12333" lon="6.70103">
        <ele>706.9</ele>
        <time>2025-02-02T15:52:04Z</time>
      </trkpt>
      <trkpt lat="48.12341" lon="6.70097">
        <ele>706.5</ele>
        <time>2025-02-02T15:52:15Z</time>
      </trkpt>
      <trkpt lat="48.12351" lon="6.70084">
        <ele>705.8</ele>
        <time>2025-02-02T15:52:22Z</time>
      </trkpt>
      <trkpt lat="48.12355" lon="6.70081">
        <ele>705.6</ele>
        <time>2025-02-02T15:52:32Z</time>
      </trkpt>
      <trkpt lat="48.12358" lon="6.70078">
        <ele>705.3</ele>
        <time>2025-02-02T15:52:38Z</time>
      </trkpt>
      <trkpt lat="48.12362" lon="6.70075">
        <ele>705.1</ele>
        <time>2025-02-02T15:52:46Z</time>
      </trkpt>
      <trkpt lat="48.12366" lon="6.70072">
        <ele>705</ele>
        <time>2025-02-02T15:52:55Z</time>
      </trkpt>
      <trkpt lat="48.12369" lon="6.70068">
        <ele>704.8</ele>
        <time>2025-02-02T15:53:15Z</time>
      </trkpt>
      <trkpt lat="48.12373" lon="6.70065">
        <ele>704.7</ele>
        <time>2025-02-02T15:53:16Z</time>
      </trkpt>
      <trkpt lat="48.12376" lon="6.70062">
        <ele>704.6</ele>
        <time>2025-02-02T15:53:17Z</time>
      </trkpt>
      <trkpt lat="48.1238" lon="6.70059">
        <ele>704.6</ele>
        <time>2025-02-02T15:53:18Z</time>
      </trkpt>
      <trkpt lat="48.12383" lon="6.70056">
        <ele>704.5</ele>
        <time>2025-02-02T15:53:18Z</time>
      </trkpt>
      <trkpt lat="48.12383" lon="6.70056">
        <ele>704.5</ele>
        <time>2025-02-02T15:53:18Z</time>
      </trkpt>
    </trkseg>
  </trk>
</gpx>